<?xml version="1.0" encoding="UTF-8" standalone="no" ?>
<gpx xmlns="http://www.topografix.com/GPX/1/1" xmlns:xsi="http://www.w3.org/2001/XMLSchema-instance" xsi:schemaLocation="http://www.topografix.com/GPX/1/1 http://www.topografix.com/GPX/1/1/gpx.xsd" version="1.1" creator="VisuGPX - https://www.visugpx.com">
  <metadata>
    <name>rando à Rignac</name>
    <desc><![CDATA[Darnis, Dongay, Roumegouse]]></desc>
  </metadata>
  <wpt lat="44.80489" lon="1.69496">
    <ele>337.6</ele>
    <name><![CDATA[Rignac (départ)]]></name>
  </wpt>
  <wpt lat="44.80504" lon="1.69492">
    <ele>329</ele>
    <name><![CDATA[Rignac (fin)]]></name>
    <desc><![CDATA[Créé par Mes parcours sur Android  Nom : Rignac Type d'activité : marche Description : - Distance totale : 5,86 km (3,6 mi) Durée totale : 1:58:22 Durée du déplacement : 1:50:24 Vitesse moyenne : 2,97 km/h (1,8 mi/h) Vitesse moyenne de déplacement : 3,18 km/h (2,0 mi/h) Vitesse max. : 6,30 km/h (3,9 mi/h) Vitesse moyenne : 20:12 min/km (32:31 min/mi) Allure moyenne : 18:51 min/km (30:19 min/mi) Vitesse maximale : 9:32 min/km (15:20 min/mi) Élévation max. : 420 m (1378 pi) Élévation min. : 322 m (1057 pi) Dénivelé : 104 m (342 pi) Inclinaison max. : 15 % Inclinaison min. : -14 % Date d'enregistrement : 15/09/2015 16:30]]></desc>
  </wpt>
  <trk>
    <name><![CDATA[Rignac]]></name>
    <trkseg>
      <trkpt lat="44.80489" lon="1.69496">
        <ele>337.638702393</ele>
        <time>2015-09-15T14:30:00.453Z</time>
      </trkpt>
      <trkpt lat="44.80492" lon="1.69506">
        <ele>336.009643555</ele>
        <time>2015-09-15T14:32:48.339Z</time>
      </trkpt>
      <trkpt lat="44.80498" lon="1.69518">
        <ele>335.97454834</ele>
        <time>2015-09-15T14:32:49.263Z</time>
      </trkpt>
      <trkpt lat="44.80498" lon="1.69528">
        <ele>335.872467041</ele>
        <time>2015-09-15T14:32:59.346Z</time>
      </trkpt>
      <trkpt lat="44.80501" lon="1.69536">
        <ele>335.943054199</ele>
        <time>2015-09-15T14:33:00.502Z</time>
      </trkpt>
      <trkpt lat="44.80502" lon="1.69548">
        <ele>335.610046387</ele>
        <time>2015-09-15T14:33:06.346Z</time>
      </trkpt>
      <trkpt lat="44.80503" lon="1.69549">
        <ele>335.409851074</ele>
        <time>2015-09-15T14:33:07.328Z</time>
      </trkpt>
      <trkpt lat="44.80495" lon="1.69554">
        <ele>333.722015381</ele>
        <time>2015-09-15T14:33:19.113Z</time>
      </trkpt>
      <trkpt lat="44.80494" lon="1.69555">
        <ele>333.644470215</ele>
        <time>2015-09-15T14:33:19.214Z</time>
      </trkpt>
      <trkpt lat="44.80487" lon="1.69561">
        <ele>332.882019043</ele>
        <time>2015-09-15T14:33:28.467Z</time>
      </trkpt>
      <trkpt lat="44.80486" lon="1.69562">
        <ele>332.75390625</ele>
        <time>2015-09-15T14:33:29.259Z</time>
      </trkpt>
      <trkpt lat="44.80478" lon="1.69565">
        <ele>332.475921631</ele>
        <time>2015-09-15T14:33:35.223Z</time>
      </trkpt>
      <trkpt lat="44.80477" lon="1.69565">
        <ele>332.53817749</ele>
        <time>2015-09-15T14:33:36.463Z</time>
      </trkpt>
      <trkpt lat="44.80472" lon="1.69575">
        <ele>332.00201416</ele>
        <time>2015-09-15T14:33:51.399Z</time>
      </trkpt>
      <trkpt lat="44.80472" lon="1.69577">
        <ele>332.02053833</ele>
        <time>2015-09-15T14:33:52.197Z</time>
      </trkpt>
      <trkpt lat="44.80472" lon="1.69589">
        <ele>331.989074707</ele>
        <time>2015-09-15T14:33:59.222Z</time>
      </trkpt>
      <trkpt lat="44.80472" lon="1.69591">
        <ele>331.996826172</ele>
        <time>2015-09-15T14:34:00.313Z</time>
      </trkpt>
      <trkpt lat="44.80473" lon="1.69603">
        <ele>332.169830322</ele>
        <time>2015-09-15T14:34:08.229Z</time>
      </trkpt>
      <trkpt lat="44.80473" lon="1.69604">
        <ele>332.211425781</ele>
        <time>2015-09-15T14:34:09.331Z</time>
      </trkpt>
      <trkpt lat="44.80472" lon="1.69617">
        <ele>331.756134033</ele>
        <time>2015-09-15T14:34:20.42Z</time>
      </trkpt>
      <trkpt lat="44.80472" lon="1.69617">
        <ele>331.699890137</ele>
        <time>2015-09-15T14:34:21.34Z</time>
      </trkpt>
      <trkpt lat="44.80473" lon="1.69628">
        <ele>331.758758545</ele>
        <time>2015-09-15T14:34:26.469Z</time>
      </trkpt>
      <trkpt lat="44.80473" lon="1.69631">
        <ele>331.723968506</ele>
        <time>2015-09-15T14:34:27.248Z</time>
      </trkpt>
      <trkpt lat="44.80473" lon="1.69642">
        <ele>331.888397217</ele>
        <time>2015-09-15T14:34:34.313Z</time>
      </trkpt>
      <trkpt lat="44.80473" lon="1.69643">
        <ele>331.89730835</ele>
        <time>2015-09-15T14:34:35.245Z</time>
      </trkpt>
      <trkpt lat="44.80475" lon="1.69654">
        <ele>331.910064697</ele>
        <time>2015-09-15T14:34:41.326Z</time>
      </trkpt>
      <trkpt lat="44.80475" lon="1.69656">
        <ele>331.891723633</ele>
        <time>2015-09-15T14:34:42.253Z</time>
      </trkpt>
      <trkpt lat="44.80477" lon="1.69667">
        <ele>331.041381836</ele>
        <time>2015-09-15T14:34:57.403Z</time>
      </trkpt>
      <trkpt lat="44.80477" lon="1.69669">
        <ele>331.062042236</ele>
        <time>2015-09-15T14:34:58.3Z</time>
      </trkpt>
      <trkpt lat="44.80481" lon="1.6968">
        <ele>331.078430176</ele>
        <time>2015-09-15T14:35:05.403Z</time>
      </trkpt>
      <trkpt lat="44.80481" lon="1.69681">
        <ele>331.078857422</ele>
        <time>2015-09-15T14:35:06.29Z</time>
      </trkpt>
      <trkpt lat="44.80485" lon="1.69693">
        <ele>330.87097168</ele>
        <time>2015-09-15T14:35:19.334Z</time>
      </trkpt>
      <trkpt lat="44.80485" lon="1.69693">
        <ele>330.890563965</ele>
        <time>2015-09-15T14:35:20.237Z</time>
      </trkpt>
      <trkpt lat="44.80489" lon="1.69703">
        <ele>331.799682617</ele>
        <time>2015-09-15T14:35:28.4Z</time>
      </trkpt>
      <trkpt lat="44.8049" lon="1.69704">
        <ele>331.849487305</ele>
        <time>2015-09-15T14:35:29.292Z</time>
      </trkpt>
      <trkpt lat="44.80494" lon="1.69714">
        <ele>331.793060303</ele>
        <time>2015-09-15T14:35:35.429Z</time>
      </trkpt>
      <trkpt lat="44.80494" lon="1.69716">
        <ele>331.777679443</ele>
        <time>2015-09-15T14:35:36.38Z</time>
      </trkpt>
      <trkpt lat="44.80498" lon="1.69727">
        <ele>331.628417969</ele>
        <time>2015-09-15T14:35:43.433Z</time>
      </trkpt>
      <trkpt lat="44.80499" lon="1.69729">
        <ele>331.64630127</ele>
        <time>2015-09-15T14:35:44.295Z</time>
      </trkpt>
      <trkpt lat="44.80502" lon="1.69738">
        <ele>331.869232178</ele>
        <time>2015-09-15T14:35:50.394Z</time>
      </trkpt>
      <trkpt lat="44.80502" lon="1.6974">
        <ele>331.900604248</ele>
        <time>2015-09-15T14:35:51.291Z</time>
      </trkpt>
      <trkpt lat="44.80507" lon="1.69749">
        <ele>331.908447266</ele>
        <time>2015-09-15T14:35:58.397Z</time>
      </trkpt>
      <trkpt lat="44.80507" lon="1.69751">
        <ele>331.858886719</ele>
        <time>2015-09-15T14:35:59.299Z</time>
      </trkpt>
      <trkpt lat="44.80512" lon="1.69761">
        <ele>331.613372803</ele>
        <time>2015-09-15T14:36:06.403Z</time>
      </trkpt>
      <trkpt lat="44.80512" lon="1.69763">
        <ele>331.616210938</ele>
        <time>2015-09-15T14:36:07.355Z</time>
      </trkpt>
      <trkpt lat="44.80512" lon="1.69774">
        <ele>331.628479004</ele>
        <time>2015-09-15T14:36:14.398Z</time>
      </trkpt>
      <trkpt lat="44.80513" lon="1.69776">
        <ele>331.619171143</ele>
        <time>2015-09-15T14:36:15.321Z</time>
      </trkpt>
      <trkpt lat="44.80511" lon="1.69788">
        <ele>332.122497559</ele>
        <time>2015-09-15T14:36:24.385Z</time>
      </trkpt>
      <trkpt lat="44.80511" lon="1.6979">
        <ele>332.226135254</ele>
        <time>2015-09-15T14:36:25.299Z</time>
      </trkpt>
      <trkpt lat="44.80507" lon="1.698">
        <ele>332.827636719</ele>
        <time>2015-09-15T14:36:34.396Z</time>
      </trkpt>
      <trkpt lat="44.80507" lon="1.69802">
        <ele>332.869110107</ele>
        <time>2015-09-15T14:36:35.298Z</time>
      </trkpt>
      <trkpt lat="44.80505" lon="1.69814">
        <ele>333.739746094</ele>
        <time>2015-09-15T14:36:44.5Z</time>
      </trkpt>
      <trkpt lat="44.80506" lon="1.69817">
        <ele>333.903625488</ele>
        <time>2015-09-15T14:36:45.297Z</time>
      </trkpt>
      <trkpt lat="44.80507" lon="1.69829">
        <ele>334.657501221</ele>
        <time>2015-09-15T14:36:54.029Z</time>
      </trkpt>
      <trkpt lat="44.80506" lon="1.69831">
        <ele>334.776397705</ele>
        <time>2015-09-15T14:36:54.249Z</time>
      </trkpt>
      <trkpt lat="44.80504" lon="1.69843">
        <ele>335.359771729</ele>
        <time>2015-09-15T14:37:02.439Z</time>
      </trkpt>
      <trkpt lat="44.80505" lon="1.69846">
        <ele>335.463165283</ele>
        <time>2015-09-15T14:37:03.296Z</time>
      </trkpt>
      <trkpt lat="44.80506" lon="1.69858">
        <ele>336.17855835</ele>
        <time>2015-09-15T14:37:10.463Z</time>
      </trkpt>
      <trkpt lat="44.80506" lon="1.69859">
        <ele>336.257171631</ele>
        <time>2015-09-15T14:37:11.238Z</time>
      </trkpt>
      <trkpt lat="44.80507" lon="1.69871">
        <ele>336.464782715</ele>
        <time>2015-09-15T14:37:18.399Z</time>
      </trkpt>
      <trkpt lat="44.80507" lon="1.69872">
        <ele>336.484100342</ele>
        <time>2015-09-15T14:37:19.298Z</time>
      </trkpt>
      <trkpt lat="44.80509" lon="1.69883">
        <ele>337.009063721</ele>
        <time>2015-09-15T14:37:31.418Z</time>
      </trkpt>
      <trkpt lat="44.80509" lon="1.69885">
        <ele>337.044799805</ele>
        <time>2015-09-15T14:37:32.32Z</time>
      </trkpt>
      <trkpt lat="44.80511" lon="1.69895">
        <ele>337.554168701</ele>
        <time>2015-09-15T14:37:39.395Z</time>
      </trkpt>
      <trkpt lat="44.80512" lon="1.69898">
        <ele>337.62612915</ele>
        <time>2015-09-15T14:37:40.294Z</time>
      </trkpt>
      <trkpt lat="44.80517" lon="1.69909">
        <ele>337.98135376</ele>
        <time>2015-09-15T14:37:45.339Z</time>
      </trkpt>
      <trkpt lat="44.80518" lon="1.6991">
        <ele>338.043212891</ele>
        <time>2015-09-15T14:37:46.28Z</time>
      </trkpt>
      <trkpt lat="44.80519" lon="1.69923">
        <ele>338.813537598</ele>
        <time>2015-09-15T14:37:57.395Z</time>
      </trkpt>
      <trkpt lat="44.8052" lon="1.69925">
        <ele>338.845489502</ele>
        <time>2015-09-15T14:37:58.387Z</time>
      </trkpt>
      <trkpt lat="44.80526" lon="1.69932">
        <ele>339.306030273</ele>
        <time>2015-09-15T14:38:04.39Z</time>
      </trkpt>
      <trkpt lat="44.80527" lon="1.69933">
        <ele>339.400177002</ele>
        <time>2015-09-15T14:38:05.293Z</time>
      </trkpt>
      <trkpt lat="44.80534" lon="1.69941">
        <ele>340.092407227</ele>
        <time>2015-09-15T14:38:17.418Z</time>
      </trkpt>
      <trkpt lat="44.80535" lon="1.69941">
        <ele>340.219604492</ele>
        <time>2015-09-15T14:38:18.321Z</time>
      </trkpt>
      <trkpt lat="44.8054" lon="1.69951">
        <ele>341.215820312</ele>
        <time>2015-09-15T14:38:26.397Z</time>
      </trkpt>
      <trkpt lat="44.8054" lon="1.69952">
        <ele>341.335479736</ele>
        <time>2015-09-15T14:38:27.312Z</time>
      </trkpt>
      <trkpt lat="44.80542" lon="1.69962">
        <ele>341.431335449</ele>
        <time>2015-09-15T14:38:34.393Z</time>
      </trkpt>
      <trkpt lat="44.80543" lon="1.69964">
        <ele>341.448852539</ele>
        <time>2015-09-15T14:38:35.29Z</time>
      </trkpt>
      <trkpt lat="44.80543" lon="1.69977">
        <ele>342.113891602</ele>
        <time>2015-09-15T14:38:45.396Z</time>
      </trkpt>
      <trkpt lat="44.80543" lon="1.69978">
        <ele>342.181274414</ele>
        <time>2015-09-15T14:38:46.298Z</time>
      </trkpt>
      <trkpt lat="44.8054" lon="1.6999">
        <ele>342.809967041</ele>
        <time>2015-09-15T14:38:54.395Z</time>
      </trkpt>
      <trkpt lat="44.8054" lon="1.69991">
        <ele>342.877044678</ele>
        <time>2015-09-15T14:38:55.318Z</time>
      </trkpt>
      <trkpt lat="44.80536" lon="1.70002">
        <ele>343.603363037</ele>
        <time>2015-09-15T14:39:05.52Z</time>
      </trkpt>
      <trkpt lat="44.80536" lon="1.70003">
        <ele>343.649108887</ele>
        <time>2015-09-15T14:39:06.313Z</time>
      </trkpt>
      <trkpt lat="44.80532" lon="1.70013">
        <ele>344.003295898</ele>
        <time>2015-09-15T14:39:13.348Z</time>
      </trkpt>
      <trkpt lat="44.80532" lon="1.70015">
        <ele>344.019775391</ele>
        <time>2015-09-15T14:39:14.278Z</time>
      </trkpt>
      <trkpt lat="44.80531" lon="1.70026">
        <ele>344.731658936</ele>
        <time>2015-09-15T14:39:23.445Z</time>
      </trkpt>
      <trkpt lat="44.80532" lon="1.70028">
        <ele>344.775878906</ele>
        <time>2015-09-15T14:39:24.295Z</time>
      </trkpt>
      <trkpt lat="44.80534" lon="1.70039">
        <ele>345.014038086</ele>
        <time>2015-09-15T14:39:30.423Z</time>
      </trkpt>
      <trkpt lat="44.80534" lon="1.7004">
        <ele>345.097259521</ele>
        <time>2015-09-15T14:39:31.317Z</time>
      </trkpt>
      <trkpt lat="44.80537" lon="1.70052">
        <ele>345.441772461</ele>
        <time>2015-09-15T14:39:40.404Z</time>
      </trkpt>
      <trkpt lat="44.80537" lon="1.70053">
        <ele>345.427093506</ele>
        <time>2015-09-15T14:39:41.367Z</time>
      </trkpt>
      <trkpt lat="44.80539" lon="1.70064">
        <ele>345.418518066</ele>
        <time>2015-09-15T14:39:47.234Z</time>
      </trkpt>
      <trkpt lat="44.8054" lon="1.70066">
        <ele>345.474151611</ele>
        <time>2015-09-15T14:39:48.297Z</time>
      </trkpt>
      <trkpt lat="44.80541" lon="1.70077">
        <ele>345.457122803</ele>
        <time>2015-09-15T14:39:54.424Z</time>
      </trkpt>
      <trkpt lat="44.80541" lon="1.70079">
        <ele>345.459594727</ele>
        <time>2015-09-15T14:39:55.331Z</time>
      </trkpt>
      <trkpt lat="44.80542" lon="1.70091">
        <ele>345.244995117</ele>
        <time>2015-09-15T14:40:05.401Z</time>
      </trkpt>
      <trkpt lat="44.80542" lon="1.70092">
        <ele>345.291320801</ele>
        <time>2015-09-15T14:40:06.304Z</time>
      </trkpt>
      <trkpt lat="44.80543" lon="1.70103">
        <ele>345.562347412</ele>
        <time>2015-09-15T14:40:15.346Z</time>
      </trkpt>
      <trkpt lat="44.80543" lon="1.70105">
        <ele>345.538665771</ele>
        <time>2015-09-15T14:40:16.283Z</time>
      </trkpt>
      <trkpt lat="44.80548" lon="1.70114">
        <ele>345.736816406</ele>
        <time>2015-09-15T14:40:21.405Z</time>
      </trkpt>
      <trkpt lat="44.80549" lon="1.70116">
        <ele>345.815551758</ele>
        <time>2015-09-15T14:40:22.304Z</time>
      </trkpt>
      <trkpt lat="44.80551" lon="1.70127">
        <ele>346.195098877</ele>
        <time>2015-09-15T14:40:29.468Z</time>
      </trkpt>
      <trkpt lat="44.80551" lon="1.70128">
        <ele>346.280334473</ele>
        <time>2015-09-15T14:40:30.247Z</time>
      </trkpt>
      <trkpt lat="44.80553" lon="1.7014">
        <ele>346.422058105</ele>
        <time>2015-09-15T14:40:38.424Z</time>
      </trkpt>
      <trkpt lat="44.80553" lon="1.70142">
        <ele>346.430908203</ele>
        <time>2015-09-15T14:40:39.289Z</time>
      </trkpt>
      <trkpt lat="44.80553" lon="1.70152">
        <ele>346.416656494</ele>
        <time>2015-09-15T14:41:10.219Z</time>
      </trkpt>
      <trkpt lat="44.80554" lon="1.70155">
        <ele>346.502044678</ele>
        <time>2015-09-15T14:41:10.978Z</time>
      </trkpt>
      <trkpt lat="44.80555" lon="1.70167">
        <ele>346.854553223</ele>
        <time>2015-09-15T14:41:19.075Z</time>
      </trkpt>
      <trkpt lat="44.80555" lon="1.70169">
        <ele>346.901092529</ele>
        <time>2015-09-15T14:41:19.947Z</time>
      </trkpt>
      <trkpt lat="44.80555" lon="1.70181">
        <ele>347.21862793</ele>
        <time>2015-09-15T14:41:30.039Z</time>
      </trkpt>
      <trkpt lat="44.80555" lon="1.70183">
        <ele>347.260101318</ele>
        <time>2015-09-15T14:41:31.091Z</time>
      </trkpt>
      <trkpt lat="44.80557" lon="1.70195">
        <ele>347.823059082</ele>
        <time>2015-09-15T14:41:40.101Z</time>
      </trkpt>
      <trkpt lat="44.80558" lon="1.70197">
        <ele>347.924102783</ele>
        <time>2015-09-15T14:41:40.876Z</time>
      </trkpt>
      <trkpt lat="44.8056" lon="1.70209">
        <ele>348.305023193</ele>
        <time>2015-09-15T14:41:47.071Z</time>
      </trkpt>
      <trkpt lat="44.8056" lon="1.7021">
        <ele>348.376403809</ele>
        <time>2015-09-15T14:41:47.973Z</time>
      </trkpt>
      <trkpt lat="44.80562" lon="1.70222">
        <ele>349.308624268</ele>
        <time>2015-09-15T14:42:02.078Z</time>
      </trkpt>
      <trkpt lat="44.80563" lon="1.70223">
        <ele>349.385925293</ele>
        <time>2015-09-15T14:42:02.912Z</time>
      </trkpt>
      <trkpt lat="44.80563" lon="1.70235">
        <ele>349.863739014</ele>
        <time>2015-09-15T14:42:11.073Z</time>
      </trkpt>
      <trkpt lat="44.80563" lon="1.70237">
        <ele>350.012786865</ele>
        <time>2015-09-15T14:42:12.007Z</time>
      </trkpt>
      <trkpt lat="44.80562" lon="1.70249">
        <ele>351.106628418</ele>
        <time>2015-09-15T14:42:37.17Z</time>
      </trkpt>
      <trkpt lat="44.80562" lon="1.7025">
        <ele>351.247894287</ele>
        <time>2015-09-15T14:42:37.82Z</time>
      </trkpt>
      <trkpt lat="44.80562" lon="1.70261">
        <ele>352.491516113</ele>
        <time>2015-09-15T14:42:54.074Z</time>
      </trkpt>
      <trkpt lat="44.80562" lon="1.70263">
        <ele>352.603027344</ele>
        <time>2015-09-15T14:42:55.157Z</time>
      </trkpt>
      <trkpt lat="44.80561" lon="1.70275">
        <ele>354.195861816</ele>
        <time>2015-09-15T14:43:13.14Z</time>
      </trkpt>
      <trkpt lat="44.80561" lon="1.70276">
        <ele>354.284332275</ele>
        <time>2015-09-15T14:43:14.007Z</time>
      </trkpt>
      <trkpt lat="44.80558" lon="1.70284">
        <ele>354.852874756</ele>
        <time>2015-09-15T14:43:20.082Z</time>
      </trkpt>
      <trkpt lat="44.80559" lon="1.7029">
        <ele>354.952545166</ele>
        <time>2015-09-15T14:43:20.981Z</time>
      </trkpt>
      <trkpt lat="44.8056" lon="1.70301">
        <ele>355.318603516</ele>
        <time>2015-09-15T14:43:25.071Z</time>
      </trkpt>
      <trkpt lat="44.8056" lon="1.70302">
        <ele>355.39050293</ele>
        <time>2015-09-15T14:43:25.996Z</time>
      </trkpt>
      <trkpt lat="44.80562" lon="1.70314">
        <ele>356.014678955</ele>
        <time>2015-09-15T14:43:33.074Z</time>
      </trkpt>
      <trkpt lat="44.80563" lon="1.70316">
        <ele>356.132843018</ele>
        <time>2015-09-15T14:43:33.982Z</time>
      </trkpt>
      <trkpt lat="44.80567" lon="1.70327">
        <ele>356.909301758</ele>
        <time>2015-09-15T14:43:40.142Z</time>
      </trkpt>
      <trkpt lat="44.80567" lon="1.70328">
        <ele>357.02166748</ele>
        <time>2015-09-15T14:43:40.973Z</time>
      </trkpt>
      <trkpt lat="44.80568" lon="1.7034">
        <ele>357.663970947</ele>
        <time>2015-09-15T14:43:49.664Z</time>
      </trkpt>
      <trkpt lat="44.80568" lon="1.70341">
        <ele>357.701599121</ele>
        <time>2015-09-15T14:43:49.923Z</time>
      </trkpt>
      <trkpt lat="44.80568" lon="1.70352">
        <ele>358.325073242</ele>
        <time>2015-09-15T14:43:58.108Z</time>
      </trkpt>
      <trkpt lat="44.80568" lon="1.70354">
        <ele>358.422149658</ele>
        <time>2015-09-15T14:43:59Z</time>
      </trkpt>
      <trkpt lat="44.8057" lon="1.70365">
        <ele>359.071533203</ele>
        <time>2015-09-15T14:44:06.145Z</time>
      </trkpt>
      <trkpt lat="44.8057" lon="1.70366">
        <ele>359.170562744</ele>
        <time>2015-09-15T14:44:06.921Z</time>
      </trkpt>
      <trkpt lat="44.80573" lon="1.70378">
        <ele>360.113586426</ele>
        <time>2015-09-15T14:44:17.072Z</time>
      </trkpt>
      <trkpt lat="44.80573" lon="1.70379">
        <ele>360.226013184</ele>
        <time>2015-09-15T14:44:17.875Z</time>
      </trkpt>
      <trkpt lat="44.80576" lon="1.70388">
        <ele>360.460174561</ele>
        <time>2015-09-15T14:44:23.105Z</time>
      </trkpt>
      <trkpt lat="44.80577" lon="1.7039">
        <ele>360.539001465</ele>
        <time>2015-09-15T14:44:23.968Z</time>
      </trkpt>
      <trkpt lat="44.8058" lon="1.70401">
        <ele>361.138702393</ele>
        <time>2015-09-15T14:44:31.107Z</time>
      </trkpt>
      <trkpt lat="44.80581" lon="1.70402">
        <ele>361.269287109</ele>
        <time>2015-09-15T14:44:32.029Z</time>
      </trkpt>
      <trkpt lat="44.80583" lon="1.70413">
        <ele>361.83203125</ele>
        <time>2015-09-15T14:44:40.075Z</time>
      </trkpt>
      <trkpt lat="44.80583" lon="1.70415">
        <ele>361.954803467</ele>
        <time>2015-09-15T14:44:40.971Z</time>
      </trkpt>
      <trkpt lat="44.80583" lon="1.70428">
        <ele>362.317108154</ele>
        <time>2015-09-15T14:44:49.985Z</time>
      </trkpt>
      <trkpt lat="44.80583" lon="1.7043">
        <ele>362.315643311</ele>
        <time>2015-09-15T14:44:50.975Z</time>
      </trkpt>
      <trkpt lat="44.80586" lon="1.70442">
        <ele>362.892608643</ele>
        <time>2015-09-15T14:45:04.067Z</time>
      </trkpt>
      <trkpt lat="44.80586" lon="1.70444">
        <ele>362.988861084</ele>
        <time>2015-09-15T14:45:04.976Z</time>
      </trkpt>
      <trkpt lat="44.80585" lon="1.70456">
        <ele>363.510162354</ele>
        <time>2015-09-15T14:45:12.907Z</time>
      </trkpt>
      <trkpt lat="44.80585" lon="1.70458">
        <ele>363.513916016</ele>
        <time>2015-09-15T14:45:14.074Z</time>
      </trkpt>
      <trkpt lat="44.80583" lon="1.7047">
        <ele>363.705078125</ele>
        <time>2015-09-15T14:45:22.002Z</time>
      </trkpt>
      <trkpt lat="44.80583" lon="1.70472">
        <ele>363.743804932</ele>
        <time>2015-09-15T14:45:22.891Z</time>
      </trkpt>
      <trkpt lat="44.80582" lon="1.70484">
        <ele>362.575286865</ele>
        <time>2015-09-15T14:48:37.919Z</time>
      </trkpt>
      <trkpt lat="44.80583" lon="1.70485">
        <ele>362.609558105</ele>
        <time>2015-09-15T14:48:38.891Z</time>
      </trkpt>
      <trkpt lat="44.8058" lon="1.70495">
        <ele>362.923706055</ele>
        <time>2015-09-15T14:48:43.891Z</time>
      </trkpt>
      <trkpt lat="44.8058" lon="1.70498">
        <ele>363.008911133</ele>
        <time>2015-09-15T14:48:44.878Z</time>
      </trkpt>
      <trkpt lat="44.80579" lon="1.7051">
        <ele>363.428619385</ele>
        <time>2015-09-15T14:48:50.9Z</time>
      </trkpt>
      <trkpt lat="44.80579" lon="1.70511">
        <ele>363.490386963</ele>
        <time>2015-09-15T14:48:51.875Z</time>
      </trkpt>
      <trkpt lat="44.80581" lon="1.70523">
        <ele>364.106689453</ele>
        <time>2015-09-15T14:48:57.896Z</time>
      </trkpt>
      <trkpt lat="44.80581" lon="1.70525">
        <ele>364.11517334</ele>
        <time>2015-09-15T14:48:58.875Z</time>
      </trkpt>
      <trkpt lat="44.8058" lon="1.70538">
        <ele>364.171478271</ele>
        <time>2015-09-15T14:49:05.071Z</time>
      </trkpt>
      <trkpt lat="44.8058" lon="1.70538">
        <ele>364.190429688</ele>
        <time>2015-09-15T14:49:06.031Z</time>
      </trkpt>
      <trkpt lat="44.80576" lon="1.70548">
        <ele>364.729248047</ele>
        <time>2015-09-15T14:49:15.073Z</time>
      </trkpt>
      <trkpt lat="44.80576" lon="1.7055">
        <ele>364.718841553</ele>
        <time>2015-09-15T14:49:15.998Z</time>
      </trkpt>
      <trkpt lat="44.80572" lon="1.70561">
        <ele>364.667694092</ele>
        <time>2015-09-15T14:49:23.742Z</time>
      </trkpt>
      <trkpt lat="44.80572" lon="1.70564">
        <ele>364.782928467</ele>
        <time>2015-09-15T14:49:23.876Z</time>
      </trkpt>
      <trkpt lat="44.80568" lon="1.70575">
        <ele>364.918426514</ele>
        <time>2015-09-15T14:49:31.072Z</time>
      </trkpt>
      <trkpt lat="44.80567" lon="1.70575">
        <ele>364.91418457</ele>
        <time>2015-09-15T14:49:31.951Z</time>
      </trkpt>
      <trkpt lat="44.80564" lon="1.70585">
        <ele>364.31640625</ele>
        <time>2015-09-15T14:49:40.066Z</time>
      </trkpt>
      <trkpt lat="44.80564" lon="1.70587">
        <ele>364.269439697</ele>
        <time>2015-09-15T14:49:40.98Z</time>
      </trkpt>
      <trkpt lat="44.80561" lon="1.70598">
        <ele>364.567108154</ele>
        <time>2015-09-15T14:49:49.66Z</time>
      </trkpt>
      <trkpt lat="44.8056" lon="1.70599">
        <ele>364.668701172</ele>
        <time>2015-09-15T14:49:49.909Z</time>
      </trkpt>
      <trkpt lat="44.80554" lon="1.70608">
        <ele>365.25592041</ele>
        <time>2015-09-15T14:49:58.018Z</time>
      </trkpt>
      <trkpt lat="44.80553" lon="1.70608">
        <ele>365.318817139</ele>
        <time>2015-09-15T14:49:58.993Z</time>
      </trkpt>
      <trkpt lat="44.80547" lon="1.70617">
        <ele>365.854919434</ele>
        <time>2015-09-15T14:50:08.018Z</time>
      </trkpt>
      <trkpt lat="44.80546" lon="1.70619">
        <ele>365.87701416</ele>
        <time>2015-09-15T14:50:08.995Z</time>
      </trkpt>
      <trkpt lat="44.80541" lon="1.70627">
        <ele>366.410858154</ele>
        <time>2015-09-15T14:50:17.1Z</time>
      </trkpt>
      <trkpt lat="44.8054" lon="1.70629">
        <ele>366.43447876</ele>
        <time>2015-09-15T14:50:17.876Z</time>
      </trkpt>
      <trkpt lat="44.80535" lon="1.70639">
        <ele>366.675750732</ele>
        <time>2015-09-15T14:50:24.086Z</time>
      </trkpt>
      <trkpt lat="44.80534" lon="1.7064">
        <ele>366.679382324</ele>
        <time>2015-09-15T14:50:25.037Z</time>
      </trkpt>
      <trkpt lat="44.80531" lon="1.70651">
        <ele>366.365997314</ele>
        <time>2015-09-15T14:50:34.112Z</time>
      </trkpt>
      <trkpt lat="44.8053" lon="1.70652">
        <ele>366.344909668</ele>
        <time>2015-09-15T14:50:34.979Z</time>
      </trkpt>
      <trkpt lat="44.80526" lon="1.70662">
        <ele>366.646911621</ele>
        <time>2015-09-15T14:50:42.916Z</time>
      </trkpt>
      <trkpt lat="44.80526" lon="1.70664">
        <ele>366.735870361</ele>
        <time>2015-09-15T14:50:43.983Z</time>
      </trkpt>
      <trkpt lat="44.80523" lon="1.70675">
        <ele>367.108947754</ele>
        <time>2015-09-15T14:50:52.035Z</time>
      </trkpt>
      <trkpt lat="44.80522" lon="1.70677">
        <ele>367.077423096</ele>
        <time>2015-09-15T14:50:53.008Z</time>
      </trkpt>
      <trkpt lat="44.8052" lon="1.70688">
        <ele>367.340484619</ele>
        <time>2015-09-15T14:51:00.119Z</time>
      </trkpt>
      <trkpt lat="44.80519" lon="1.70689">
        <ele>367.433013916</ele>
        <time>2015-09-15T14:51:00.993Z</time>
      </trkpt>
      <trkpt lat="44.80514" lon="1.70699">
        <ele>367.762115479</ele>
        <time>2015-09-15T14:51:09.102Z</time>
      </trkpt>
      <trkpt lat="44.80514" lon="1.707">
        <ele>367.745147705</ele>
        <time>2015-09-15T14:51:09.986Z</time>
      </trkpt>
      <trkpt lat="44.80508" lon="1.70709">
        <ele>367.889801025</ele>
        <time>2015-09-15T14:51:19.144Z</time>
      </trkpt>
      <trkpt lat="44.80507" lon="1.70711">
        <ele>367.9347229</ele>
        <time>2015-09-15T14:51:19.875Z</time>
      </trkpt>
      <trkpt lat="44.80504" lon="1.70723">
        <ele>368.005859375</ele>
        <time>2015-09-15T14:51:27.069Z</time>
      </trkpt>
      <trkpt lat="44.80504" lon="1.70724">
        <ele>368.063995361</ele>
        <time>2015-09-15T14:51:27.975Z</time>
      </trkpt>
      <trkpt lat="44.80501" lon="1.70734">
        <ele>368.518157959</ele>
        <time>2015-09-15T14:51:36.11Z</time>
      </trkpt>
      <trkpt lat="44.80501" lon="1.70735">
        <ele>368.570465088</ele>
        <time>2015-09-15T14:51:36.987Z</time>
      </trkpt>
      <trkpt lat="44.80498" lon="1.70747">
        <ele>368.761047363</ele>
        <time>2015-09-15T14:51:45.085Z</time>
      </trkpt>
      <trkpt lat="44.80497" lon="1.70748">
        <ele>368.839050293</ele>
        <time>2015-09-15T14:51:45.964Z</time>
      </trkpt>
      <trkpt lat="44.80494" lon="1.70759">
        <ele>369.428039551</ele>
        <time>2015-09-15T14:51:55.122Z</time>
      </trkpt>
      <trkpt lat="44.80493" lon="1.7076">
        <ele>369.587646484</ele>
        <time>2015-09-15T14:51:55.988Z</time>
      </trkpt>
      <trkpt lat="44.8049" lon="1.70769">
        <ele>370.270751953</ele>
        <time>2015-09-15T14:52:03.961Z</time>
      </trkpt>
      <trkpt lat="44.80489" lon="1.70772">
        <ele>370.328674316</ele>
        <time>2015-09-15T14:52:04.96Z</time>
      </trkpt>
      <trkpt lat="44.80485" lon="1.7078">
        <ele>370.272521973</ele>
        <time>2015-09-15T14:52:12.08Z</time>
      </trkpt>
      <trkpt lat="44.80484" lon="1.70783">
        <ele>370.26776123</ele>
        <time>2015-09-15T14:52:12.929Z</time>
      </trkpt>
      <trkpt lat="44.80481" lon="1.70795">
        <ele>369.988677979</ele>
        <time>2015-09-15T14:52:29.096Z</time>
      </trkpt>
      <trkpt lat="44.80482" lon="1.70796">
        <ele>369.927246094</ele>
        <time>2015-09-15T14:52:29.938Z</time>
      </trkpt>
      <trkpt lat="44.80476" lon="1.70804">
        <ele>369.315612793</ele>
        <time>2015-09-15T14:52:41.021Z</time>
      </trkpt>
      <trkpt lat="44.80476" lon="1.70806">
        <ele>369.282012939</ele>
        <time>2015-09-15T14:52:41.956Z</time>
      </trkpt>
      <trkpt lat="44.80472" lon="1.70816">
        <ele>369.566802979</ele>
        <time>2015-09-15T14:52:52.107Z</time>
      </trkpt>
      <trkpt lat="44.80471" lon="1.70817">
        <ele>369.652648926</ele>
        <time>2015-09-15T14:52:52.995Z</time>
      </trkpt>
      <trkpt lat="44.80469" lon="1.70829">
        <ele>369.885223389</ele>
        <time>2015-09-15T14:53:02.065Z</time>
      </trkpt>
      <trkpt lat="44.80469" lon="1.7083">
        <ele>369.983093262</ele>
        <time>2015-09-15T14:53:02.955Z</time>
      </trkpt>
      <trkpt lat="44.80462" lon="1.70837">
        <ele>370.566009521</ele>
        <time>2015-09-15T14:53:13.303Z</time>
      </trkpt>
      <trkpt lat="44.80462" lon="1.70838">
        <ele>370.692108154</ele>
        <time>2015-09-15T14:53:13.938Z</time>
      </trkpt>
      <trkpt lat="44.80456" lon="1.70847">
        <ele>371.130859375</ele>
        <time>2015-09-15T14:53:23.052Z</time>
      </trkpt>
      <trkpt lat="44.80455" lon="1.70848">
        <ele>371.174438477</ele>
        <time>2015-09-15T14:53:23.955Z</time>
      </trkpt>
      <trkpt lat="44.80453" lon="1.70857">
        <ele>371.228881836</ele>
        <time>2015-09-15T14:53:28.026Z</time>
      </trkpt>
      <trkpt lat="44.80453" lon="1.7086">
        <ele>371.205322266</ele>
        <time>2015-09-15T14:53:28.96Z</time>
      </trkpt>
      <trkpt lat="44.8045" lon="1.70872">
        <ele>371.18927002</ele>
        <time>2015-09-15T14:53:37.023Z</time>
      </trkpt>
      <trkpt lat="44.80449" lon="1.70873">
        <ele>371.239501953</ele>
        <time>2015-09-15T14:53:37.972Z</time>
      </trkpt>
      <trkpt lat="44.80447" lon="1.70885">
        <ele>371.530700684</ele>
        <time>2015-09-15T14:53:43.097Z</time>
      </trkpt>
      <trkpt lat="44.80446" lon="1.70887">
        <ele>371.485046387</ele>
        <time>2015-09-15T14:53:44.017Z</time>
      </trkpt>
      <trkpt lat="44.80439" lon="1.70895">
        <ele>371.983123779</ele>
        <time>2015-09-15T14:54:00.994Z</time>
      </trkpt>
      <trkpt lat="44.80439" lon="1.70896">
        <ele>371.952423096</ele>
        <time>2015-09-15T14:54:01.976Z</time>
      </trkpt>
      <trkpt lat="44.80433" lon="1.70904">
        <ele>372.010314941</ele>
        <time>2015-09-15T14:54:10.077Z</time>
      </trkpt>
      <trkpt lat="44.80432" lon="1.70907">
        <ele>372.104400635</ele>
        <time>2015-09-15T14:54:10.962Z</time>
      </trkpt>
      <trkpt lat="44.80431" lon="1.70919">
        <ele>372.542999268</ele>
        <time>2015-09-15T14:54:18.138Z</time>
      </trkpt>
      <trkpt lat="44.80431" lon="1.7092">
        <ele>372.535888672</ele>
        <time>2015-09-15T14:54:18.975Z</time>
      </trkpt>
      <trkpt lat="44.80426" lon="1.7093">
        <ele>372.015380859</ele>
        <time>2015-09-15T14:54:49.001Z</time>
      </trkpt>
      <trkpt lat="44.80426" lon="1.70931">
        <ele>372.005981445</ele>
        <time>2015-09-15T14:54:49.94Z</time>
      </trkpt>
      <trkpt lat="44.80419" lon="1.70938">
        <ele>371.499725342</ele>
        <time>2015-09-15T14:55:03.088Z</time>
      </trkpt>
      <trkpt lat="44.80418" lon="1.70939">
        <ele>371.459289551</ele>
        <time>2015-09-15T14:55:03.986Z</time>
      </trkpt>
      <trkpt lat="44.80412" lon="1.70947">
        <ele>371.111663818</ele>
        <time>2015-09-15T14:55:12.077Z</time>
      </trkpt>
      <trkpt lat="44.80411" lon="1.70948">
        <ele>371.10168457</ele>
        <time>2015-09-15T14:55:12.91Z</time>
      </trkpt>
      <trkpt lat="44.80402" lon="1.7095">
        <ele>371.264892578</ele>
        <time>2015-09-15T14:55:20.295Z</time>
      </trkpt>
      <trkpt lat="44.80401" lon="1.70949">
        <ele>371.269805908</ele>
        <time>2015-09-15T14:55:20.911Z</time>
      </trkpt>
      <trkpt lat="44.80392" lon="1.70947">
        <ele>371.272857666</ele>
        <time>2015-09-15T14:55:36.061Z</time>
      </trkpt>
      <trkpt lat="44.80391" lon="1.70947">
        <ele>371.272827148</ele>
        <time>2015-09-15T14:55:37.036Z</time>
      </trkpt>
      <trkpt lat="44.80382" lon="1.70949">
        <ele>371.808044434</ele>
        <time>2015-09-15T14:55:44.091Z</time>
      </trkpt>
      <trkpt lat="44.8038" lon="1.70949">
        <ele>371.926818848</ele>
        <time>2015-09-15T14:55:44.976Z</time>
      </trkpt>
      <trkpt lat="44.80372" lon="1.70945">
        <ele>371.98336792</ele>
        <time>2015-09-15T14:55:52.99Z</time>
      </trkpt>
      <trkpt lat="44.80371" lon="1.70945">
        <ele>372.028778076</ele>
        <time>2015-09-15T14:55:54.059Z</time>
      </trkpt>
      <trkpt lat="44.80363" lon="1.70943">
        <ele>372.056304932</ele>
        <time>2015-09-15T14:56:00.985Z</time>
      </trkpt>
      <trkpt lat="44.80361" lon="1.70943">
        <ele>372.11138916</ele>
        <time>2015-09-15T14:56:02.005Z</time>
      </trkpt>
      <trkpt lat="44.80353" lon="1.70941">
        <ele>372.41317749</ele>
        <time>2015-09-15T14:56:11.042Z</time>
      </trkpt>
      <trkpt lat="44.80352" lon="1.70941">
        <ele>372.43649292</ele>
        <time>2015-09-15T14:56:11.958Z</time>
      </trkpt>
      <trkpt lat="44.80343" lon="1.7094">
        <ele>373.028686523</ele>
        <time>2015-09-15T14:56:21.022Z</time>
      </trkpt>
      <trkpt lat="44.80341" lon="1.70939">
        <ele>373.101989746</ele>
        <time>2015-09-15T14:56:21.912Z</time>
      </trkpt>
      <trkpt lat="44.80333" lon="1.70939">
        <ele>373.750762939</ele>
        <time>2015-09-15T14:56:31.117Z</time>
      </trkpt>
      <trkpt lat="44.80332" lon="1.70939">
        <ele>373.810302734</ele>
        <time>2015-09-15T14:56:31.974Z</time>
      </trkpt>
      <trkpt lat="44.80324" lon="1.70941">
        <ele>374.322235107</ele>
        <time>2015-09-15T14:56:40.084Z</time>
      </trkpt>
      <trkpt lat="44.80323" lon="1.70941">
        <ele>374.289978027</ele>
        <time>2015-09-15T14:56:40.984Z</time>
      </trkpt>
      <trkpt lat="44.80315" lon="1.70942">
        <ele>374.739135742</ele>
        <time>2015-09-15T14:56:51.182Z</time>
      </trkpt>
      <trkpt lat="44.80314" lon="1.70941">
        <ele>374.808654785</ele>
        <time>2015-09-15T14:56:51.978Z</time>
      </trkpt>
      <trkpt lat="44.80306" lon="1.7094">
        <ele>375.4112854</ele>
        <time>2015-09-15T14:56:57.999Z</time>
      </trkpt>
      <trkpt lat="44.80304" lon="1.7094">
        <ele>375.523773193</ele>
        <time>2015-09-15T14:56:58.994Z</time>
      </trkpt>
      <trkpt lat="44.80296" lon="1.70939">
        <ele>376.930358887</ele>
        <time>2015-09-15T14:57:20.094Z</time>
      </trkpt>
      <trkpt lat="44.80295" lon="1.70939">
        <ele>376.81237793</ele>
        <time>2015-09-15T14:57:20.82Z</time>
      </trkpt>
      <trkpt lat="44.80287" lon="1.70937">
        <ele>376.844940186</ele>
        <time>2015-09-15T14:57:25.086Z</time>
      </trkpt>
      <trkpt lat="44.80285" lon="1.70936">
        <ele>376.899169922</ele>
        <time>2015-09-15T14:57:26.067Z</time>
      </trkpt>
      <trkpt lat="44.80277" lon="1.70934">
        <ele>377.233764648</ele>
        <time>2015-09-15T14:57:34.08Z</time>
      </trkpt>
      <trkpt lat="44.80276" lon="1.70934">
        <ele>377.188201904</ele>
        <time>2015-09-15T14:57:34.983Z</time>
      </trkpt>
      <trkpt lat="44.80269" lon="1.7093">
        <ele>377.921081543</ele>
        <time>2015-09-15T14:57:46.258Z</time>
      </trkpt>
      <trkpt lat="44.80268" lon="1.70929">
        <ele>378.029266357</ele>
        <time>2015-09-15T14:57:46.915Z</time>
      </trkpt>
      <trkpt lat="44.8026" lon="1.70925">
        <ele>378.811218262</ele>
        <time>2015-09-15T14:58:02.99Z</time>
      </trkpt>
      <trkpt lat="44.80258" lon="1.70925">
        <ele>378.851226807</ele>
        <time>2015-09-15T14:58:03.98Z</time>
      </trkpt>
      <trkpt lat="44.80249" lon="1.70926">
        <ele>380.072418213</ele>
        <time>2015-09-15T14:58:14.057Z</time>
      </trkpt>
      <trkpt lat="44.80248" lon="1.70926">
        <ele>380.229919434</ele>
        <time>2015-09-15T14:58:15.031Z</time>
      </trkpt>
      <trkpt lat="44.8024" lon="1.70926">
        <ele>382.013427734</ele>
        <time>2015-09-15T14:58:30.085Z</time>
      </trkpt>
      <trkpt lat="44.80238" lon="1.70925">
        <ele>382.157745361</ele>
        <time>2015-09-15T14:58:30.982Z</time>
      </trkpt>
      <trkpt lat="44.80229" lon="1.70924">
        <ele>383.347167969</ele>
        <time>2015-09-15T14:58:42.091Z</time>
      </trkpt>
      <trkpt lat="44.80228" lon="1.70923">
        <ele>383.502075195</ele>
        <time>2015-09-15T14:58:42.981Z</time>
      </trkpt>
      <trkpt lat="44.80219" lon="1.70927">
        <ele>384.448822021</ele>
        <time>2015-09-15T14:59:02.083Z</time>
      </trkpt>
      <trkpt lat="44.80218" lon="1.70927">
        <ele>384.531951904</ele>
        <time>2015-09-15T14:59:02.976Z</time>
      </trkpt>
      <trkpt lat="44.80213" lon="1.70935">
        <ele>385.419921875</ele>
        <time>2015-09-15T14:59:14.089Z</time>
      </trkpt>
      <trkpt lat="44.80211" lon="1.70937">
        <ele>385.482696533</ele>
        <time>2015-09-15T14:59:14.971Z</time>
      </trkpt>
      <trkpt lat="44.80204" lon="1.70942">
        <ele>386.422363281</ele>
        <time>2015-09-15T14:59:23.028Z</time>
      </trkpt>
      <trkpt lat="44.80203" lon="1.70943">
        <ele>386.555877686</ele>
        <time>2015-09-15T14:59:23.877Z</time>
      </trkpt>
      <trkpt lat="44.80201" lon="1.70954">
        <ele>387.65637207</ele>
        <time>2015-09-15T14:59:33.112Z</time>
      </trkpt>
      <trkpt lat="44.80201" lon="1.70956">
        <ele>387.791290283</ele>
        <time>2015-09-15T14:59:33.971Z</time>
      </trkpt>
      <trkpt lat="44.80195" lon="1.70965">
        <ele>388.637573242</ele>
        <time>2015-09-15T14:59:40.096Z</time>
      </trkpt>
      <trkpt lat="44.80194" lon="1.70965">
        <ele>388.762695312</ele>
        <time>2015-09-15T14:59:40.96Z</time>
      </trkpt>
      <trkpt lat="44.8019" lon="1.70975">
        <ele>390.059509277</ele>
        <time>2015-09-15T14:59:52.088Z</time>
      </trkpt>
      <trkpt lat="44.80189" lon="1.70976">
        <ele>390.313598633</ele>
        <time>2015-09-15T14:59:52.975Z</time>
      </trkpt>
      <trkpt lat="44.80181" lon="1.70978">
        <ele>394.966094971</ele>
        <time>2015-09-15T15:00:20.108Z</time>
      </trkpt>
      <trkpt lat="44.8018" lon="1.70977">
        <ele>395.26864624</ele>
        <time>2015-09-15T15:00:20.91Z</time>
      </trkpt>
      <trkpt lat="44.80173" lon="1.7097">
        <ele>397.752288818</ele>
        <time>2015-09-15T15:00:35.047Z</time>
      </trkpt>
      <trkpt lat="44.80172" lon="1.7097">
        <ele>397.99331665</ele>
        <time>2015-09-15T15:00:35.969Z</time>
      </trkpt>
      <trkpt lat="44.80165" lon="1.70964">
        <ele>398.593444824</ele>
        <time>2015-09-15T15:00:49.643Z</time>
      </trkpt>
      <trkpt lat="44.80164" lon="1.70963">
        <ele>398.7081604</ele>
        <time>2015-09-15T15:00:49.82Z</time>
      </trkpt>
      <trkpt lat="44.80156" lon="1.70958">
        <ele>398.57220459</ele>
        <time>2015-09-15T15:01:00.984Z</time>
      </trkpt>
      <trkpt lat="44.80156" lon="1.70957">
        <ele>398.560424805</ele>
        <time>2015-09-15T15:01:01.929Z</time>
      </trkpt>
      <trkpt lat="44.8015" lon="1.70947">
        <ele>400.255126953</ele>
        <time>2015-09-15T15:01:24.08Z</time>
      </trkpt>
      <trkpt lat="44.8015" lon="1.70946">
        <ele>400.322509766</ele>
        <time>2015-09-15T15:01:24.972Z</time>
      </trkpt>
      <trkpt lat="44.80143" lon="1.7094">
        <ele>400.856903076</ele>
        <time>2015-09-15T15:01:43.892Z</time>
      </trkpt>
      <trkpt lat="44.80142" lon="1.70939">
        <ele>400.753662109</ele>
        <time>2015-09-15T15:01:45.009Z</time>
      </trkpt>
      <trkpt lat="44.80137" lon="1.7093">
        <ele>400.534545898</ele>
        <time>2015-09-15T15:01:55.747Z</time>
      </trkpt>
      <trkpt lat="44.80136" lon="1.70928">
        <ele>400.486999512</ele>
        <time>2015-09-15T15:01:55.876Z</time>
      </trkpt>
      <trkpt lat="44.80133" lon="1.70916">
        <ele>401.784973145</ele>
        <time>2015-09-15T15:02:57.896Z</time>
      </trkpt>
      <trkpt lat="44.80133" lon="1.70916">
        <ele>401.918945312</ele>
        <time>2015-09-15T15:02:58.888Z</time>
      </trkpt>
      <trkpt lat="44.80129" lon="1.70905">
        <ele>402.616638184</ele>
        <time>2015-09-15T15:03:07.894Z</time>
      </trkpt>
      <trkpt lat="44.80129" lon="1.70904">
        <ele>402.6456604</ele>
        <time>2015-09-15T15:03:08.878Z</time>
      </trkpt>
      <trkpt lat="44.8013" lon="1.70892">
        <ele>403.253540039</ele>
        <time>2015-09-15T15:03:23.91Z</time>
      </trkpt>
      <trkpt lat="44.8013" lon="1.7089">
        <ele>403.35269165</ele>
        <time>2015-09-15T15:03:24.888Z</time>
      </trkpt>
      <trkpt lat="44.80131" lon="1.70879">
        <ele>405.230957031</ele>
        <time>2015-09-15T15:03:37.901Z</time>
      </trkpt>
      <trkpt lat="44.80131" lon="1.70877">
        <ele>405.485168457</ele>
        <time>2015-09-15T15:03:39.111Z</time>
      </trkpt>
      <trkpt lat="44.80129" lon="1.70865">
        <ele>406.558532715</ele>
        <time>2015-09-15T15:03:45.096Z</time>
      </trkpt>
      <trkpt lat="44.80129" lon="1.70864">
        <ele>406.688781738</ele>
        <time>2015-09-15T15:03:46.014Z</time>
      </trkpt>
      <trkpt lat="44.80129" lon="1.70852">
        <ele>407.765045166</ele>
        <time>2015-09-15T15:03:52.156Z</time>
      </trkpt>
      <trkpt lat="44.80129" lon="1.70849">
        <ele>407.901611328</ele>
        <time>2015-09-15T15:03:53.026Z</time>
      </trkpt>
      <trkpt lat="44.80131" lon="1.70838">
        <ele>412.741607666</ele>
        <time>2015-09-15T15:05:04.035Z</time>
      </trkpt>
      <trkpt lat="44.80131" lon="1.70836">
        <ele>412.708526611</ele>
        <time>2015-09-15T15:05:04.907Z</time>
      </trkpt>
      <trkpt lat="44.80126" lon="1.70827">
        <ele>413.158569336</ele>
        <time>2015-09-15T15:05:14.092Z</time>
      </trkpt>
      <trkpt lat="44.80125" lon="1.70826">
        <ele>413.158477783</ele>
        <time>2015-09-15T15:05:14.969Z</time>
      </trkpt>
      <trkpt lat="44.80118" lon="1.70819">
        <ele>413.725067139</ele>
        <time>2015-09-15T15:05:24.124Z</time>
      </trkpt>
      <trkpt lat="44.80117" lon="1.70818">
        <ele>413.782043457</ele>
        <time>2015-09-15T15:05:24.968Z</time>
      </trkpt>
      <trkpt lat="44.80111" lon="1.70809">
        <ele>414.605285645</ele>
        <time>2015-09-15T15:05:32.909Z</time>
      </trkpt>
      <trkpt lat="44.8011" lon="1.70809">
        <ele>414.756195068</ele>
        <time>2015-09-15T15:05:34.049Z</time>
      </trkpt>
      <trkpt lat="44.80105" lon="1.70799">
        <ele>415.464782715</ele>
        <time>2015-09-15T15:05:43.192Z</time>
      </trkpt>
      <trkpt lat="44.80104" lon="1.70798">
        <ele>415.523162842</ele>
        <time>2015-09-15T15:05:43.876Z</time>
      </trkpt>
      <trkpt lat="44.80098" lon="1.70788">
        <ele>415.587799072</ele>
        <time>2015-09-15T15:05:52.117Z</time>
      </trkpt>
      <trkpt lat="44.80097" lon="1.70788">
        <ele>415.603546143</ele>
        <time>2015-09-15T15:05:52.977Z</time>
      </trkpt>
      <trkpt lat="44.80089" lon="1.70782">
        <ele>415.557128906</ele>
        <time>2015-09-15T15:06:00.989Z</time>
      </trkpt>
      <trkpt lat="44.80088" lon="1.70782">
        <ele>415.505065918</ele>
        <time>2015-09-15T15:06:01.975Z</time>
      </trkpt>
      <trkpt lat="44.80081" lon="1.70774">
        <ele>415.624633789</ele>
        <time>2015-09-15T15:06:10.241Z</time>
      </trkpt>
      <trkpt lat="44.80081" lon="1.70774">
        <ele>415.607025146</ele>
        <time>2015-09-15T15:06:10.978Z</time>
      </trkpt>
      <trkpt lat="44.80074" lon="1.70767">
        <ele>415.723968506</ele>
        <time>2015-09-15T15:06:19.12Z</time>
      </trkpt>
      <trkpt lat="44.80073" lon="1.70766">
        <ele>415.860778809</ele>
        <time>2015-09-15T15:06:19.973Z</time>
      </trkpt>
      <trkpt lat="44.80067" lon="1.70758">
        <ele>416.45993042</ele>
        <time>2015-09-15T15:06:30.136Z</time>
      </trkpt>
      <trkpt lat="44.80066" lon="1.70757">
        <ele>416.565490723</ele>
        <time>2015-09-15T15:06:30.98Z</time>
      </trkpt>
      <trkpt lat="44.8006" lon="1.70751">
        <ele>417.126434326</ele>
        <time>2015-09-15T15:06:39.085Z</time>
      </trkpt>
      <trkpt lat="44.80058" lon="1.7075">
        <ele>417.133178711</ele>
        <time>2015-09-15T15:06:39.974Z</time>
      </trkpt>
      <trkpt lat="44.8005" lon="1.70745">
        <ele>417.373077393</ele>
        <time>2015-09-15T15:06:45.069Z</time>
      </trkpt>
      <trkpt lat="44.80049" lon="1.70744">
        <ele>417.390991211</ele>
        <time>2015-09-15T15:06:46.014Z</time>
      </trkpt>
      <trkpt lat="44.80043" lon="1.70738">
        <ele>417.391876221</ele>
        <time>2015-09-15T15:06:53.999Z</time>
      </trkpt>
      <trkpt lat="44.80041" lon="1.70737">
        <ele>417.29888916</ele>
        <time>2015-09-15T15:06:54.973Z</time>
      </trkpt>
      <trkpt lat="44.80034" lon="1.7073">
        <ele>416.601989746</ele>
        <time>2015-09-15T15:07:04.067Z</time>
      </trkpt>
      <trkpt lat="44.80033" lon="1.70729">
        <ele>416.513427734</ele>
        <time>2015-09-15T15:07:04.98Z</time>
      </trkpt>
      <trkpt lat="44.80028" lon="1.70721">
        <ele>416.390899658</ele>
        <time>2015-09-15T15:07:16.092Z</time>
      </trkpt>
      <trkpt lat="44.80027" lon="1.70719">
        <ele>416.471099854</ele>
        <time>2015-09-15T15:07:16.999Z</time>
      </trkpt>
      <trkpt lat="44.8002" lon="1.70711">
        <ele>417.176116943</ele>
        <time>2015-09-15T15:07:28.108Z</time>
      </trkpt>
      <trkpt lat="44.80019" lon="1.70709">
        <ele>417.207427979</ele>
        <time>2015-09-15T15:07:29.047Z</time>
      </trkpt>
      <trkpt lat="44.80012" lon="1.70702">
        <ele>417.515411377</ele>
        <time>2015-09-15T15:07:37.067Z</time>
      </trkpt>
      <trkpt lat="44.80012" lon="1.707">
        <ele>417.513000488</ele>
        <time>2015-09-15T15:07:37.987Z</time>
      </trkpt>
      <trkpt lat="44.80008" lon="1.70689">
        <ele>417.49307251</ele>
        <time>2015-09-15T15:07:47.08Z</time>
      </trkpt>
      <trkpt lat="44.80008" lon="1.70689">
        <ele>417.487609863</ele>
        <time>2015-09-15T15:07:47.985Z</time>
      </trkpt>
      <trkpt lat="44.80006" lon="1.70679">
        <ele>417.320587158</ele>
        <time>2015-09-15T15:07:57.074Z</time>
      </trkpt>
      <trkpt lat="44.80005" lon="1.70676">
        <ele>417.285797119</ele>
        <time>2015-09-15T15:07:58.109Z</time>
      </trkpt>
      <trkpt lat="44.80002" lon="1.70665">
        <ele>417.612976074</ele>
        <time>2015-09-15T15:08:10.164Z</time>
      </trkpt>
      <trkpt lat="44.80002" lon="1.70664">
        <ele>417.692749023</ele>
        <time>2015-09-15T15:08:10.969Z</time>
      </trkpt>
      <trkpt lat="44.79999" lon="1.70654">
        <ele>418.258300781</ele>
        <time>2015-09-15T15:08:17.019Z</time>
      </trkpt>
      <trkpt lat="44.79998" lon="1.70653">
        <ele>418.312255859</ele>
        <time>2015-09-15T15:08:17.984Z</time>
      </trkpt>
      <trkpt lat="44.79994" lon="1.70642">
        <ele>418.54888916</ele>
        <time>2015-09-15T15:08:26.135Z</time>
      </trkpt>
      <trkpt lat="44.79994" lon="1.70641">
        <ele>418.557922363</ele>
        <time>2015-09-15T15:08:26.929Z</time>
      </trkpt>
      <trkpt lat="44.79989" lon="1.7063">
        <ele>419.229888916</ele>
        <time>2015-09-15T15:08:38.404Z</time>
      </trkpt>
      <trkpt lat="44.79988" lon="1.7063">
        <ele>419.371582031</ele>
        <time>2015-09-15T15:08:38.875Z</time>
      </trkpt>
      <trkpt lat="44.79979" lon="1.70626">
        <ele>419.736328125</ele>
        <time>2015-09-15T15:08:46.076Z</time>
      </trkpt>
      <trkpt lat="44.79978" lon="1.70626">
        <ele>419.739227295</ele>
        <time>2015-09-15T15:08:47.035Z</time>
      </trkpt>
      <trkpt lat="44.7997" lon="1.70622">
        <ele>419.704376221</ele>
        <time>2015-09-15T15:08:57.017Z</time>
      </trkpt>
      <trkpt lat="44.79969" lon="1.70623">
        <ele>419.701782227</ele>
        <time>2015-09-15T15:08:57.971Z</time>
      </trkpt>
      <trkpt lat="44.79962" lon="1.7062">
        <ele>419.523773193</ele>
        <time>2015-09-15T15:09:07.112Z</time>
      </trkpt>
      <trkpt lat="44.79961" lon="1.70619">
        <ele>419.477355957</ele>
        <time>2015-09-15T15:09:07.957Z</time>
      </trkpt>
      <trkpt lat="44.79954" lon="1.70612">
        <ele>419.503967285</ele>
        <time>2015-09-15T15:09:21.058Z</time>
      </trkpt>
      <trkpt lat="44.79953" lon="1.70611">
        <ele>419.54989624</ele>
        <time>2015-09-15T15:09:21.968Z</time>
      </trkpt>
      <trkpt lat="44.79946" lon="1.70605">
        <ele>419.342956543</ele>
        <time>2015-09-15T15:09:43.081Z</time>
      </trkpt>
      <trkpt lat="44.79945" lon="1.70604">
        <ele>419.342254639</ele>
        <time>2015-09-15T15:09:43.976Z</time>
      </trkpt>
      <trkpt lat="44.79937" lon="1.70604">
        <ele>419.732513428</ele>
        <time>2015-09-15T15:09:51.136Z</time>
      </trkpt>
      <trkpt lat="44.79936" lon="1.70605">
        <ele>419.75604248</ele>
        <time>2015-09-15T15:09:51.974Z</time>
      </trkpt>
      <trkpt lat="44.79927" lon="1.70606">
        <ele>420.322753906</ele>
        <time>2015-09-15T15:09:58.77Z</time>
      </trkpt>
      <trkpt lat="44.79925" lon="1.70605">
        <ele>420.358642578</ele>
        <time>2015-09-15T15:09:58.873Z</time>
      </trkpt>
      <trkpt lat="44.79918" lon="1.706">
        <ele>420.581359863</ele>
        <time>2015-09-15T15:10:07.264Z</time>
      </trkpt>
      <trkpt lat="44.79917" lon="1.706">
        <ele>420.669586182</ele>
        <time>2015-09-15T15:10:07.982Z</time>
      </trkpt>
      <trkpt lat="44.79909" lon="1.70595">
        <ele>420.957000732</ele>
        <time>2015-09-15T15:10:15.082Z</time>
      </trkpt>
      <trkpt lat="44.79908" lon="1.70595">
        <ele>420.922851562</ele>
        <time>2015-09-15T15:10:15.952Z</time>
      </trkpt>
      <trkpt lat="44.79899" lon="1.70592">
        <ele>420.698120117</ele>
        <time>2015-09-15T15:10:22.077Z</time>
      </trkpt>
      <trkpt lat="44.79897" lon="1.70591">
        <ele>420.616912842</ele>
        <time>2015-09-15T15:10:22.974Z</time>
      </trkpt>
      <trkpt lat="44.7989" lon="1.70584">
        <ele>419.480041504</ele>
        <time>2015-09-15T15:10:34.046Z</time>
      </trkpt>
      <trkpt lat="44.79889" lon="1.70584">
        <ele>419.412261963</ele>
        <time>2015-09-15T15:10:34.979Z</time>
      </trkpt>
      <trkpt lat="44.7988" lon="1.70581">
        <ele>419.474700928</ele>
        <time>2015-09-15T15:10:41.201Z</time>
      </trkpt>
      <trkpt lat="44.79879" lon="1.7058">
        <ele>419.46383667</ele>
        <time>2015-09-15T15:10:41.877Z</time>
      </trkpt>
      <trkpt lat="44.79871" lon="1.70575">
        <ele>419.330871582</ele>
        <time>2015-09-15T15:10:51.329Z</time>
      </trkpt>
      <trkpt lat="44.7987" lon="1.70575">
        <ele>419.380401611</ele>
        <time>2015-09-15T15:10:51.983Z</time>
      </trkpt>
      <trkpt lat="44.79861" lon="1.7057">
        <ele>419.43939209</ele>
        <time>2015-09-15T15:10:59.104Z</time>
      </trkpt>
      <trkpt lat="44.79861" lon="1.7057">
        <ele>419.480834961</ele>
        <time>2015-09-15T15:10:59.953Z</time>
      </trkpt>
      <trkpt lat="44.79853" lon="1.70567">
        <ele>419.581329346</ele>
        <time>2015-09-15T15:11:09.04Z</time>
      </trkpt>
      <trkpt lat="44.79852" lon="1.70567">
        <ele>419.510955811</ele>
        <time>2015-09-15T15:11:09.953Z</time>
      </trkpt>
      <trkpt lat="44.79844" lon="1.70562">
        <ele>418.989807129</ele>
        <time>2015-09-15T15:11:18.022Z</time>
      </trkpt>
      <trkpt lat="44.79843" lon="1.70561">
        <ele>419.012420654</ele>
        <time>2015-09-15T15:11:18.953Z</time>
      </trkpt>
      <trkpt lat="44.79834" lon="1.70557">
        <ele>418.64855957</ele>
        <time>2015-09-15T15:11:30.08Z</time>
      </trkpt>
      <trkpt lat="44.79832" lon="1.70556">
        <ele>418.635040283</ele>
        <time>2015-09-15T15:11:30.969Z</time>
      </trkpt>
      <trkpt lat="44.79825" lon="1.70552">
        <ele>418.84967041</ele>
        <time>2015-09-15T15:11:40.083Z</time>
      </trkpt>
      <trkpt lat="44.79823" lon="1.70552">
        <ele>418.796813965</ele>
        <time>2015-09-15T15:11:40.977Z</time>
      </trkpt>
      <trkpt lat="44.79815" lon="1.70552">
        <ele>418.719177246</ele>
        <time>2015-09-15T15:11:49.241Z</time>
      </trkpt>
      <trkpt lat="44.79814" lon="1.70552">
        <ele>418.828094482</ele>
        <time>2015-09-15T15:11:50.056Z</time>
      </trkpt>
      <trkpt lat="44.79806" lon="1.70556">
        <ele>419.839080811</ele>
        <time>2015-09-15T15:11:57.166Z</time>
      </trkpt>
      <trkpt lat="44.79805" lon="1.70557">
        <ele>420.007171631</ele>
        <time>2015-09-15T15:11:57.973Z</time>
      </trkpt>
      <trkpt lat="44.79798" lon="1.70563">
        <ele>421.092559814</ele>
        <time>2015-09-15T15:12:04.08Z</time>
      </trkpt>
      <trkpt lat="44.79797" lon="1.70563">
        <ele>421.181884766</ele>
        <time>2015-09-15T15:12:04.978Z</time>
      </trkpt>
      <trkpt lat="44.7979" lon="1.70569">
        <ele>421.06842041</ele>
        <time>2015-09-15T15:12:12.219Z</time>
      </trkpt>
      <trkpt lat="44.79788" lon="1.70571">
        <ele>420.995025635</ele>
        <time>2015-09-15T15:12:12.952Z</time>
      </trkpt>
      <trkpt lat="44.79782" lon="1.70577">
        <ele>419.397277832</ele>
        <time>2015-09-15T15:12:27.081Z</time>
      </trkpt>
      <trkpt lat="44.79781" lon="1.70578">
        <ele>419.305664062</ele>
        <time>2015-09-15T15:12:27.96Z</time>
      </trkpt>
      <trkpt lat="44.79772" lon="1.70581">
        <ele>419.544616699</ele>
        <time>2015-09-15T15:12:40.073Z</time>
      </trkpt>
      <trkpt lat="44.79771" lon="1.70581">
        <ele>419.590484619</ele>
        <time>2015-09-15T15:12:40.972Z</time>
      </trkpt>
      <trkpt lat="44.79763" lon="1.70577">
        <ele>420.170288086</ele>
        <time>2015-09-15T15:12:49.911Z</time>
      </trkpt>
      <trkpt lat="44.79762" lon="1.70576">
        <ele>420.26348877</ele>
        <time>2015-09-15T15:12:50.968Z</time>
      </trkpt>
      <trkpt lat="44.79756" lon="1.70571">
        <ele>420.544952393</ele>
        <time>2015-09-15T15:13:00.203Z</time>
      </trkpt>
      <trkpt lat="44.79755" lon="1.70568">
        <ele>420.526641846</ele>
        <time>2015-09-15T15:13:00.912Z</time>
      </trkpt>
      <trkpt lat="44.79748" lon="1.7056">
        <ele>420.402923584</ele>
        <time>2015-09-15T15:13:08.077Z</time>
      </trkpt>
      <trkpt lat="44.79747" lon="1.70559">
        <ele>420.387298584</ele>
        <time>2015-09-15T15:13:08.93Z</time>
      </trkpt>
      <trkpt lat="44.79741" lon="1.7055">
        <ele>420.209075928</ele>
        <time>2015-09-15T15:13:19.201Z</time>
      </trkpt>
      <trkpt lat="44.7974" lon="1.7055">
        <ele>420.216522217</ele>
        <time>2015-09-15T15:13:19.923Z</time>
      </trkpt>
      <trkpt lat="44.79734" lon="1.70542">
        <ele>419.918457031</ele>
        <time>2015-09-15T15:13:26.232Z</time>
      </trkpt>
      <trkpt lat="44.79733" lon="1.70541">
        <ele>419.909118652</ele>
        <time>2015-09-15T15:13:27.018Z</time>
      </trkpt>
      <trkpt lat="44.79731" lon="1.7053">
        <ele>419.836517334</ele>
        <time>2015-09-15T15:13:35.078Z</time>
      </trkpt>
      <trkpt lat="44.79731" lon="1.70529">
        <ele>419.739135742</ele>
        <time>2015-09-15T15:13:35.971Z</time>
      </trkpt>
      <trkpt lat="44.79726" lon="1.70519">
        <ele>419.235443115</ele>
        <time>2015-09-15T15:13:42.056Z</time>
      </trkpt>
      <trkpt lat="44.79725" lon="1.70518">
        <ele>419.155853271</ele>
        <time>2015-09-15T15:13:42.99Z</time>
      </trkpt>
      <trkpt lat="44.79719" lon="1.7051">
        <ele>418.805969238</ele>
        <time>2015-09-15T15:13:51.099Z</time>
      </trkpt>
      <trkpt lat="44.79718" lon="1.70509">
        <ele>418.766265869</ele>
        <time>2015-09-15T15:13:52.201Z</time>
      </trkpt>
      <trkpt lat="44.79712" lon="1.70499">
        <ele>418.164428711</ele>
        <time>2015-09-15T15:14:03.243Z</time>
      </trkpt>
      <trkpt lat="44.79712" lon="1.70499">
        <ele>418.166625977</ele>
        <time>2015-09-15T15:14:03.918Z</time>
      </trkpt>
      <trkpt lat="44.79704" lon="1.70493">
        <ele>417.929779053</ele>
        <time>2015-09-15T15:14:12.158Z</time>
      </trkpt>
      <trkpt lat="44.79703" lon="1.70493">
        <ele>417.880981445</ele>
        <time>2015-09-15T15:14:12.98Z</time>
      </trkpt>
      <trkpt lat="44.79697" lon="1.70484">
        <ele>417.681610107</ele>
        <time>2015-09-15T15:14:18.079Z</time>
      </trkpt>
      <trkpt lat="44.79696" lon="1.70482">
        <ele>417.659851074</ele>
        <time>2015-09-15T15:14:19.067Z</time>
      </trkpt>
      <trkpt lat="44.7969" lon="1.70475">
        <ele>417.356201172</ele>
        <time>2015-09-15T15:14:27.108Z</time>
      </trkpt>
      <trkpt lat="44.79689" lon="1.70474">
        <ele>417.279693604</ele>
        <time>2015-09-15T15:14:27.974Z</time>
      </trkpt>
      <trkpt lat="44.79683" lon="1.70465">
        <ele>416.36026001</ele>
        <time>2015-09-15T15:14:37.066Z</time>
      </trkpt>
      <trkpt lat="44.79682" lon="1.70464">
        <ele>416.210784912</ele>
        <time>2015-09-15T15:14:37.967Z</time>
      </trkpt>
      <trkpt lat="44.79679" lon="1.70453">
        <ele>415.299530029</ele>
        <time>2015-09-15T15:14:44.077Z</time>
      </trkpt>
      <trkpt lat="44.79678" lon="1.70452">
        <ele>415.152191162</ele>
        <time>2015-09-15T15:14:44.972Z</time>
      </trkpt>
      <trkpt lat="44.79676" lon="1.7044">
        <ele>415.378417969</ele>
        <time>2015-09-15T15:14:57.073Z</time>
      </trkpt>
      <trkpt lat="44.79675" lon="1.70438">
        <ele>415.417877197</ele>
        <time>2015-09-15T15:14:57.972Z</time>
      </trkpt>
      <trkpt lat="44.79668" lon="1.70431">
        <ele>415.119842529</ele>
        <time>2015-09-15T15:15:15.008Z</time>
      </trkpt>
      <trkpt lat="44.79667" lon="1.70431">
        <ele>415.104736328</ele>
        <time>2015-09-15T15:15:15.954Z</time>
      </trkpt>
      <trkpt lat="44.79663" lon="1.70422">
        <ele>413.565490723</ele>
        <time>2015-09-15T15:15:59.891Z</time>
      </trkpt>
      <trkpt lat="44.79662" lon="1.7042">
        <ele>413.649597168</ele>
        <time>2015-09-15T15:16:01.008Z</time>
      </trkpt>
      <trkpt lat="44.79655" lon="1.70412">
        <ele>413.888214111</ele>
        <time>2015-09-15T15:16:08.04Z</time>
      </trkpt>
      <trkpt lat="44.79654" lon="1.70411">
        <ele>413.936859131</ele>
        <time>2015-09-15T15:16:08.99Z</time>
      </trkpt>
      <trkpt lat="44.79647" lon="1.70408">
        <ele>414.075927734</ele>
        <time>2015-09-15T15:16:26.013Z</time>
      </trkpt>
      <trkpt lat="44.79644" lon="1.70406">
        <ele>414.022827148</ele>
        <time>2015-09-15T15:16:26.91Z</time>
      </trkpt>
      <trkpt lat="44.79636" lon="1.704">
        <ele>413.301055908</ele>
        <time>2015-09-15T15:16:34.073Z</time>
      </trkpt>
      <trkpt lat="44.79635" lon="1.70399">
        <ele>413.143280029</ele>
        <time>2015-09-15T15:16:34.986Z</time>
      </trkpt>
      <trkpt lat="44.79629" lon="1.7039">
        <ele>412.466888428</ele>
        <time>2015-09-15T15:16:46.911Z</time>
      </trkpt>
      <trkpt lat="44.79628" lon="1.7039">
        <ele>412.45980835</ele>
        <time>2015-09-15T15:16:47.975Z</time>
      </trkpt>
      <trkpt lat="44.79621" lon="1.70385">
        <ele>412.368988037</ele>
        <time>2015-09-15T15:16:55.07Z</time>
      </trkpt>
      <trkpt lat="44.79619" lon="1.70384">
        <ele>412.299102783</ele>
        <time>2015-09-15T15:16:55.976Z</time>
      </trkpt>
      <trkpt lat="44.79618" lon="1.70373">
        <ele>411.853210449</ele>
        <time>2015-09-15T15:17:10.014Z</time>
      </trkpt>
      <trkpt lat="44.79618" lon="1.70371">
        <ele>411.806549072</ele>
        <time>2015-09-15T15:17:10.968Z</time>
      </trkpt>
      <trkpt lat="44.79619" lon="1.70359">
        <ele>411.460754395</ele>
        <time>2015-09-15T15:17:18.991Z</time>
      </trkpt>
      <trkpt lat="44.7962" lon="1.70358">
        <ele>411.413757324</ele>
        <time>2015-09-15T15:17:19.991Z</time>
      </trkpt>
      <trkpt lat="44.79621" lon="1.70346">
        <ele>411.156921387</ele>
        <time>2015-09-15T15:17:27.077Z</time>
      </trkpt>
      <trkpt lat="44.79622" lon="1.70345">
        <ele>411.143585205</ele>
        <time>2015-09-15T15:17:28.109Z</time>
      </trkpt>
      <trkpt lat="44.79626" lon="1.70334">
        <ele>411.07244873</ele>
        <time>2015-09-15T15:17:36.069Z</time>
      </trkpt>
      <trkpt lat="44.79626" lon="1.70333">
        <ele>411.001647949</ele>
        <time>2015-09-15T15:17:36.955Z</time>
      </trkpt>
      <trkpt lat="44.79629" lon="1.70323">
        <ele>410.606933594</ele>
        <time>2015-09-15T15:17:44.737Z</time>
      </trkpt>
      <trkpt lat="44.7963" lon="1.70321">
        <ele>410.532409668</ele>
        <time>2015-09-15T15:17:45.982Z</time>
      </trkpt>
      <trkpt lat="44.79632" lon="1.7031">
        <ele>410.555847168</ele>
        <time>2015-09-15T15:17:51.917Z</time>
      </trkpt>
      <trkpt lat="44.79632" lon="1.70308">
        <ele>410.493041992</ele>
        <time>2015-09-15T15:17:52.843Z</time>
      </trkpt>
      <trkpt lat="44.79635" lon="1.70296">
        <ele>409.996551514</ele>
        <time>2015-09-15T15:18:00.754Z</time>
      </trkpt>
      <trkpt lat="44.79635" lon="1.70296">
        <ele>409.929229736</ele>
        <time>2015-09-15T15:18:01.864Z</time>
      </trkpt>
      <trkpt lat="44.79639" lon="1.70286">
        <ele>409.077087402</ele>
        <time>2015-09-15T15:18:10.815Z</time>
      </trkpt>
      <trkpt lat="44.7964" lon="1.70283">
        <ele>409.120544434</ele>
        <time>2015-09-15T15:18:11.754Z</time>
      </trkpt>
      <trkpt lat="44.79643" lon="1.70274">
        <ele>408.81729126</ele>
        <time>2015-09-15T15:18:18.977Z</time>
      </trkpt>
      <trkpt lat="44.79643" lon="1.70271">
        <ele>408.811828613</ele>
        <time>2015-09-15T15:18:19.817Z</time>
      </trkpt>
      <trkpt lat="44.79646" lon="1.7026">
        <ele>408.491210938</ele>
        <time>2015-09-15T15:18:26.927Z</time>
      </trkpt>
      <trkpt lat="44.79647" lon="1.70259">
        <ele>408.518249512</ele>
        <time>2015-09-15T15:18:27.812Z</time>
      </trkpt>
      <trkpt lat="44.7965" lon="1.70247">
        <ele>408.389923096</ele>
        <time>2015-09-15T15:18:36.96Z</time>
      </trkpt>
      <trkpt lat="44.7965" lon="1.70246">
        <ele>408.378051758</ele>
        <time>2015-09-15T15:18:37.814Z</time>
      </trkpt>
      <trkpt lat="44.79654" lon="1.70237">
        <ele>407.909729004</ele>
        <time>2015-09-15T15:18:43.833Z</time>
      </trkpt>
      <trkpt lat="44.79655" lon="1.70235">
        <ele>407.882263184</ele>
        <time>2015-09-15T15:18:44.833Z</time>
      </trkpt>
      <trkpt lat="44.79659" lon="1.70226">
        <ele>407.514373779</ele>
        <time>2015-09-15T15:18:51.929Z</time>
      </trkpt>
      <trkpt lat="44.7966" lon="1.70224">
        <ele>407.515441895</ele>
        <time>2015-09-15T15:18:52.837Z</time>
      </trkpt>
      <trkpt lat="44.79662" lon="1.70215">
        <ele>407.253112793</ele>
        <time>2015-09-15T15:18:57.918Z</time>
      </trkpt>
      <trkpt lat="44.79662" lon="1.70212">
        <ele>407.23324585</ele>
        <time>2015-09-15T15:18:58.911Z</time>
      </trkpt>
      <trkpt lat="44.79667" lon="1.70202">
        <ele>406.581848145</ele>
        <time>2015-09-15T15:19:11.885Z</time>
      </trkpt>
      <trkpt lat="44.79667" lon="1.70201">
        <ele>406.505737305</ele>
        <time>2015-09-15T15:19:12.797Z</time>
      </trkpt>
      <trkpt lat="44.79672" lon="1.7019">
        <ele>405.698822021</ele>
        <time>2015-09-15T15:19:20.018Z</time>
      </trkpt>
      <trkpt lat="44.79672" lon="1.70189">
        <ele>405.588806152</ele>
        <time>2015-09-15T15:19:20.758Z</time>
      </trkpt>
      <trkpt lat="44.79676" lon="1.70179">
        <ele>405.112091064</ele>
        <time>2015-09-15T15:19:30.918Z</time>
      </trkpt>
      <trkpt lat="44.79676" lon="1.70178">
        <ele>405.013305664</ele>
        <time>2015-09-15T15:19:31.823Z</time>
      </trkpt>
      <trkpt lat="44.79678" lon="1.70166">
        <ele>404.736419678</ele>
        <time>2015-09-15T15:19:38.018Z</time>
      </trkpt>
      <trkpt lat="44.79678" lon="1.70163">
        <ele>404.725921631</ele>
        <time>2015-09-15T15:19:38.825Z</time>
      </trkpt>
      <trkpt lat="44.79676" lon="1.70151">
        <ele>402.972869873</ele>
        <time>2015-09-15T15:20:06.932Z</time>
      </trkpt>
      <trkpt lat="44.79676" lon="1.7015">
        <ele>402.932434082</ele>
        <time>2015-09-15T15:20:07.828Z</time>
      </trkpt>
      <trkpt lat="44.79679" lon="1.70138">
        <ele>402.775909424</ele>
        <time>2015-09-15T15:20:15.93Z</time>
      </trkpt>
      <trkpt lat="44.79679" lon="1.70136">
        <ele>402.771362305</ele>
        <time>2015-09-15T15:20:16.826Z</time>
      </trkpt>
      <trkpt lat="44.7968" lon="1.70124">
        <ele>402.779907227</ele>
        <time>2015-09-15T15:20:28.827Z</time>
      </trkpt>
      <trkpt lat="44.79681" lon="1.70124">
        <ele>402.77911377</ele>
        <time>2015-09-15T15:20:29.818Z</time>
      </trkpt>
      <trkpt lat="44.79685" lon="1.70113">
        <ele>401.765899658</ele>
        <time>2015-09-15T15:20:56.929Z</time>
      </trkpt>
      <trkpt lat="44.79686" lon="1.70111">
        <ele>401.728118896</ele>
        <time>2015-09-15T15:20:57.828Z</time>
      </trkpt>
      <trkpt lat="44.79688" lon="1.70101">
        <ele>401.689971924</ele>
        <time>2015-09-15T15:21:03.985Z</time>
      </trkpt>
      <trkpt lat="44.79688" lon="1.70099">
        <ele>401.678924561</ele>
        <time>2015-09-15T15:21:04.817Z</time>
      </trkpt>
      <trkpt lat="44.79687" lon="1.70087">
        <ele>401.242889404</ele>
        <time>2015-09-15T15:21:11.064Z</time>
      </trkpt>
      <trkpt lat="44.79686" lon="1.70085">
        <ele>401.137390137</ele>
        <time>2015-09-15T15:21:11.749Z</time>
      </trkpt>
      <trkpt lat="44.79686" lon="1.70074">
        <ele>400.828338623</ele>
        <time>2015-09-15T15:21:19.737Z</time>
      </trkpt>
      <trkpt lat="44.79686" lon="1.70072">
        <ele>400.808044434</ele>
        <time>2015-09-15T15:21:20.813Z</time>
      </trkpt>
      <trkpt lat="44.79688" lon="1.7006">
        <ele>402.774078369</ele>
        <time>2015-09-15T15:23:45.962Z</time>
      </trkpt>
      <trkpt lat="44.79688" lon="1.70059">
        <ele>402.849365234</ele>
        <time>2015-09-15T15:23:46.88Z</time>
      </trkpt>
      <trkpt lat="44.79689" lon="1.70047">
        <ele>404.222625732</ele>
        <time>2015-09-15T15:24:00.108Z</time>
      </trkpt>
      <trkpt lat="44.79688" lon="1.70045">
        <ele>404.299591064</ele>
        <time>2015-09-15T15:24:00.752Z</time>
      </trkpt>
      <trkpt lat="44.79687" lon="1.70033">
        <ele>404.464599609</ele>
        <time>2015-09-15T15:24:08.92Z</time>
      </trkpt>
      <trkpt lat="44.79687" lon="1.70031">
        <ele>404.463531494</ele>
        <time>2015-09-15T15:24:09.819Z</time>
      </trkpt>
      <trkpt lat="44.79687" lon="1.70019">
        <ele>404.484619141</ele>
        <time>2015-09-15T15:24:17.586Z</time>
      </trkpt>
      <trkpt lat="44.79687" lon="1.70017">
        <ele>404.526428223</ele>
        <time>2015-09-15T15:24:17.717Z</time>
      </trkpt>
      <trkpt lat="44.79687" lon="1.70005">
        <ele>404.903442383</ele>
        <time>2015-09-15T15:24:26.912Z</time>
      </trkpt>
      <trkpt lat="44.79689" lon="1.70004">
        <ele>404.979278564</ele>
        <time>2015-09-15T15:24:27.845Z</time>
      </trkpt>
      <trkpt lat="44.79689" lon="1.69991">
        <ele>405.626953125</ele>
        <time>2015-09-15T15:24:36.835Z</time>
      </trkpt>
      <trkpt lat="44.79689" lon="1.69989">
        <ele>405.67980957</ele>
        <time>2015-09-15T15:24:37.824Z</time>
      </trkpt>
      <trkpt lat="44.79688" lon="1.69977">
        <ele>406.086364746</ele>
        <time>2015-09-15T15:24:44.015Z</time>
      </trkpt>
      <trkpt lat="44.79688" lon="1.69975">
        <ele>406.088226318</ele>
        <time>2015-09-15T15:24:44.813Z</time>
      </trkpt>
      <trkpt lat="44.79688" lon="1.69963">
        <ele>405.995605469</ele>
        <time>2015-09-15T15:24:52.911Z</time>
      </trkpt>
      <trkpt lat="44.79688" lon="1.69962">
        <ele>405.876281738</ele>
        <time>2015-09-15T15:24:53.812Z</time>
      </trkpt>
      <trkpt lat="44.7969" lon="1.69952">
        <ele>405.606964111</ele>
        <time>2015-09-15T15:25:00.914Z</time>
      </trkpt>
      <trkpt lat="44.7969" lon="1.69949">
        <ele>405.628295898</ele>
        <time>2015-09-15T15:25:01.815Z</time>
      </trkpt>
      <trkpt lat="44.79687" lon="1.69938">
        <ele>405.891540527</ele>
        <time>2015-09-15T15:25:07.922Z</time>
      </trkpt>
      <trkpt lat="44.79687" lon="1.69936">
        <ele>405.889160156</ele>
        <time>2015-09-15T15:25:08.83Z</time>
      </trkpt>
      <trkpt lat="44.79687" lon="1.69925">
        <ele>405.859680176</ele>
        <time>2015-09-15T15:26:16.859Z</time>
      </trkpt>
      <trkpt lat="44.79687" lon="1.69923">
        <ele>405.89932251</ele>
        <time>2015-09-15T15:26:17.811Z</time>
      </trkpt>
      <trkpt lat="44.79686" lon="1.69911">
        <ele>406.273284912</ele>
        <time>2015-09-15T15:26:24.859Z</time>
      </trkpt>
      <trkpt lat="44.79686" lon="1.69909">
        <ele>406.323303223</ele>
        <time>2015-09-15T15:26:25.814Z</time>
      </trkpt>
      <trkpt lat="44.79685" lon="1.69897">
        <ele>406.279602051</ele>
        <time>2015-09-15T15:26:31.99Z</time>
      </trkpt>
      <trkpt lat="44.79685" lon="1.69895">
        <ele>406.27331543</ele>
        <time>2015-09-15T15:26:32.881Z</time>
      </trkpt>
      <trkpt lat="44.79685" lon="1.69882">
        <ele>406.334381104</ele>
        <time>2015-09-15T15:26:41.917Z</time>
      </trkpt>
      <trkpt lat="44.79685" lon="1.69881">
        <ele>406.389312744</ele>
        <time>2015-09-15T15:26:42.8Z</time>
      </trkpt>
      <trkpt lat="44.79687" lon="1.6987">
        <ele>406.847045898</ele>
        <time>2015-09-15T15:26:52.913Z</time>
      </trkpt>
      <trkpt lat="44.79687" lon="1.69868">
        <ele>406.90612793</ele>
        <time>2015-09-15T15:26:53.837Z</time>
      </trkpt>
      <trkpt lat="44.79688" lon="1.69855">
        <ele>407.101623535</ele>
        <time>2015-09-15T15:27:00.84Z</time>
      </trkpt>
      <trkpt lat="44.79689" lon="1.69853">
        <ele>407.083282471</ele>
        <time>2015-09-15T15:27:01.811Z</time>
      </trkpt>
      <trkpt lat="44.79689" lon="1.69841">
        <ele>406.655975342</ele>
        <time>2015-09-15T15:27:07.921Z</time>
      </trkpt>
      <trkpt lat="44.79689" lon="1.69839">
        <ele>406.532562256</ele>
        <time>2015-09-15T15:27:08.834Z</time>
      </trkpt>
      <trkpt lat="44.79691" lon="1.69827">
        <ele>406.552154541</ele>
        <time>2015-09-15T15:27:21.929Z</time>
      </trkpt>
      <trkpt lat="44.7969" lon="1.69825">
        <ele>406.614532471</ele>
        <time>2015-09-15T15:27:22.815Z</time>
      </trkpt>
      <trkpt lat="44.79691" lon="1.69813">
        <ele>406.6355896</ele>
        <time>2015-09-15T15:27:30.922Z</time>
      </trkpt>
      <trkpt lat="44.79692" lon="1.69812">
        <ele>406.656433105</ele>
        <time>2015-09-15T15:27:31.811Z</time>
      </trkpt>
      <trkpt lat="44.79693" lon="1.69801">
        <ele>406.577148438</ele>
        <time>2015-09-15T15:27:39.919Z</time>
      </trkpt>
      <trkpt lat="44.79693" lon="1.69798">
        <ele>406.581817627</ele>
        <time>2015-09-15T15:27:40.824Z</time>
      </trkpt>
      <trkpt lat="44.79693" lon="1.69786">
        <ele>406.553283691</ele>
        <time>2015-09-15T15:27:49.043Z</time>
      </trkpt>
      <trkpt lat="44.79693" lon="1.69784">
        <ele>406.611480713</ele>
        <time>2015-09-15T15:27:49.828Z</time>
      </trkpt>
      <trkpt lat="44.79694" lon="1.69773">
        <ele>406.584106445</ele>
        <time>2015-09-15T15:27:54.936Z</time>
      </trkpt>
      <trkpt lat="44.79694" lon="1.69771">
        <ele>406.539245605</ele>
        <time>2015-09-15T15:27:55.825Z</time>
      </trkpt>
      <trkpt lat="44.79695" lon="1.6976">
        <ele>406.234558105</ele>
        <time>2015-09-15T15:28:02.526Z</time>
      </trkpt>
      <trkpt lat="44.79696" lon="1.69758">
        <ele>406.121124268</ele>
        <time>2015-09-15T15:28:02.768Z</time>
      </trkpt>
      <trkpt lat="44.79696" lon="1.69747">
        <ele>405.685943604</ele>
        <time>2015-09-15T15:28:09.046Z</time>
      </trkpt>
      <trkpt lat="44.79696" lon="1.69745">
        <ele>405.691223145</ele>
        <time>2015-09-15T15:28:09.818Z</time>
      </trkpt>
      <trkpt lat="44.79698" lon="1.69734">
        <ele>405.950958252</ele>
        <time>2015-09-15T15:28:19.915Z</time>
      </trkpt>
      <trkpt lat="44.79698" lon="1.69732">
        <ele>406.045532227</ele>
        <time>2015-09-15T15:28:20.819Z</time>
      </trkpt>
      <trkpt lat="44.79699" lon="1.6972">
        <ele>406.379455566</ele>
        <time>2015-09-15T15:28:28.909Z</time>
      </trkpt>
      <trkpt lat="44.79699" lon="1.69717">
        <ele>406.374755859</ele>
        <time>2015-09-15T15:28:29.842Z</time>
      </trkpt>
      <trkpt lat="44.79702" lon="1.69706">
        <ele>405.931518555</ele>
        <time>2015-09-15T15:28:35.913Z</time>
      </trkpt>
      <trkpt lat="44.79702" lon="1.69703">
        <ele>405.841369629</ele>
        <time>2015-09-15T15:28:36.815Z</time>
      </trkpt>
      <trkpt lat="44.79703" lon="1.69691">
        <ele>405.046112061</ele>
        <time>2015-09-15T15:28:43.909Z</time>
      </trkpt>
      <trkpt lat="44.79704" lon="1.6969">
        <ele>405.009338379</ele>
        <time>2015-09-15T15:28:44.751Z</time>
      </trkpt>
      <trkpt lat="44.79703" lon="1.69677">
        <ele>404.676330566</ele>
        <time>2015-09-15T15:28:53.911Z</time>
      </trkpt>
      <trkpt lat="44.79703" lon="1.69676">
        <ele>404.638092041</ele>
        <time>2015-09-15T15:28:54.835Z</time>
      </trkpt>
      <trkpt lat="44.79702" lon="1.69666">
        <ele>404.670074463</ele>
        <time>2015-09-15T15:29:00.976Z</time>
      </trkpt>
      <trkpt lat="44.79702" lon="1.69663">
        <ele>404.660430908</ele>
        <time>2015-09-15T15:29:01.799Z</time>
      </trkpt>
      <trkpt lat="44.79703" lon="1.69651">
        <ele>404.921508789</ele>
        <time>2015-09-15T15:29:11.921Z</time>
      </trkpt>
      <trkpt lat="44.79703" lon="1.69648">
        <ele>404.988250732</ele>
        <time>2015-09-15T15:29:12.814Z</time>
      </trkpt>
      <trkpt lat="44.79706" lon="1.69637">
        <ele>405.163543701</ele>
        <time>2015-09-15T15:29:19.917Z</time>
      </trkpt>
      <trkpt lat="44.79707" lon="1.69635">
        <ele>405.196380615</ele>
        <time>2015-09-15T15:29:20.813Z</time>
      </trkpt>
      <trkpt lat="44.79707" lon="1.69623">
        <ele>405.381317139</ele>
        <time>2015-09-15T15:29:29.919Z</time>
      </trkpt>
      <trkpt lat="44.79707" lon="1.69621">
        <ele>405.381195068</ele>
        <time>2015-09-15T15:29:30.818Z</time>
      </trkpt>
      <trkpt lat="44.79706" lon="1.6961">
        <ele>405.382659912</ele>
        <time>2015-09-15T15:29:35.911Z</time>
      </trkpt>
      <trkpt lat="44.79707" lon="1.69608">
        <ele>405.320373535</ele>
        <time>2015-09-15T15:29:36.805Z</time>
      </trkpt>
      <trkpt lat="44.79708" lon="1.69597">
        <ele>405.121154785</ele>
        <time>2015-09-15T15:29:42.951Z</time>
      </trkpt>
      <trkpt lat="44.79708" lon="1.69595">
        <ele>405.056243896</ele>
        <time>2015-09-15T15:29:43.817Z</time>
      </trkpt>
      <trkpt lat="44.79708" lon="1.69583">
        <ele>404.766204834</ele>
        <time>2015-09-15T15:29:51.919Z</time>
      </trkpt>
      <trkpt lat="44.79708" lon="1.69581">
        <ele>404.710968018</ele>
        <time>2015-09-15T15:29:52.813Z</time>
      </trkpt>
      <trkpt lat="44.79707" lon="1.69568">
        <ele>404.194885254</ele>
        <time>2015-09-15T15:30:01.921Z</time>
      </trkpt>
      <trkpt lat="44.79708" lon="1.69566">
        <ele>404.157775879</ele>
        <time>2015-09-15T15:30:02.807Z</time>
      </trkpt>
      <trkpt lat="44.7971" lon="1.69556">
        <ele>404.155700684</ele>
        <time>2015-09-15T15:30:09.864Z</time>
      </trkpt>
      <trkpt lat="44.79711" lon="1.69554">
        <ele>404.156463623</ele>
        <time>2015-09-15T15:30:10.798Z</time>
      </trkpt>
      <trkpt lat="44.79713" lon="1.69543">
        <ele>403.935394287</ele>
        <time>2015-09-15T15:30:16.911Z</time>
      </trkpt>
      <trkpt lat="44.79713" lon="1.69541">
        <ele>403.894226074</ele>
        <time>2015-09-15T15:30:17.842Z</time>
      </trkpt>
      <trkpt lat="44.79714" lon="1.69529">
        <ele>403.649139404</ele>
        <time>2015-09-15T15:30:25.919Z</time>
      </trkpt>
      <trkpt lat="44.79714" lon="1.69527">
        <ele>403.598815918</ele>
        <time>2015-09-15T15:30:26.816Z</time>
      </trkpt>
      <trkpt lat="44.79714" lon="1.69515">
        <ele>403.648834229</ele>
        <time>2015-09-15T15:30:33.921Z</time>
      </trkpt>
      <trkpt lat="44.79714" lon="1.69513">
        <ele>403.61038208</ele>
        <time>2015-09-15T15:30:34.805Z</time>
      </trkpt>
      <trkpt lat="44.79714" lon="1.69502">
        <ele>403.828369141</ele>
        <time>2015-09-15T15:30:40.861Z</time>
      </trkpt>
      <trkpt lat="44.79714" lon="1.695">
        <ele>403.862030029</ele>
        <time>2015-09-15T15:30:41.792Z</time>
      </trkpt>
      <trkpt lat="44.79717" lon="1.69488">
        <ele>403.921478271</ele>
        <time>2015-09-15T15:30:49.775Z</time>
      </trkpt>
      <trkpt lat="44.79717" lon="1.69487">
        <ele>403.970123291</ele>
        <time>2015-09-15T15:30:50.939Z</time>
      </trkpt>
      <trkpt lat="44.79718" lon="1.69476">
        <ele>403.981811523</ele>
        <time>2015-09-15T15:31:00.737Z</time>
      </trkpt>
      <trkpt lat="44.79718" lon="1.69474">
        <ele>403.855926514</ele>
        <time>2015-09-15T15:31:01.912Z</time>
      </trkpt>
      <trkpt lat="44.79718" lon="1.69462">
        <ele>403.360412598</ele>
        <time>2015-09-15T15:31:07.911Z</time>
      </trkpt>
      <trkpt lat="44.79718" lon="1.6946">
        <ele>403.349700928</ele>
        <time>2015-09-15T15:31:08.892Z</time>
      </trkpt>
      <trkpt lat="44.79717" lon="1.69448">
        <ele>403.328796387</ele>
        <time>2015-09-15T15:31:15.907Z</time>
      </trkpt>
      <trkpt lat="44.79718" lon="1.69446">
        <ele>403.351379395</ele>
        <time>2015-09-15T15:31:16.814Z</time>
      </trkpt>
      <trkpt lat="44.79718" lon="1.69435">
        <ele>403.524261475</ele>
        <time>2015-09-15T15:31:21.737Z</time>
      </trkpt>
      <trkpt lat="44.79718" lon="1.69433">
        <ele>403.547607422</ele>
        <time>2015-09-15T15:31:22.837Z</time>
      </trkpt>
      <trkpt lat="44.79719" lon="1.69421">
        <ele>403.467468262</ele>
        <time>2015-09-15T15:31:28.979Z</time>
      </trkpt>
      <trkpt lat="44.79719" lon="1.6942">
        <ele>403.457977295</ele>
        <time>2015-09-15T15:31:29.867Z</time>
      </trkpt>
      <trkpt lat="44.79721" lon="1.69409">
        <ele>403.242675781</ele>
        <time>2015-09-15T15:31:37.997Z</time>
      </trkpt>
      <trkpt lat="44.79721" lon="1.69406">
        <ele>403.177429199</ele>
        <time>2015-09-15T15:31:38.815Z</time>
      </trkpt>
      <trkpt lat="44.79722" lon="1.69395">
        <ele>402.77166748</ele>
        <time>2015-09-15T15:31:44.958Z</time>
      </trkpt>
      <trkpt lat="44.79723" lon="1.69393">
        <ele>402.689544678</ele>
        <time>2015-09-15T15:31:45.867Z</time>
      </trkpt>
      <trkpt lat="44.79721" lon="1.69381">
        <ele>402.408477783</ele>
        <time>2015-09-15T15:31:54.13Z</time>
      </trkpt>
      <trkpt lat="44.79721" lon="1.6938">
        <ele>402.383972168</ele>
        <time>2015-09-15T15:31:54.72Z</time>
      </trkpt>
      <trkpt lat="44.79721" lon="1.69368">
        <ele>402.454071045</ele>
        <time>2015-09-15T15:32:00.828Z</time>
      </trkpt>
      <trkpt lat="44.79721" lon="1.69366">
        <ele>402.46862793</ele>
        <time>2015-09-15T15:32:01.811Z</time>
      </trkpt>
      <trkpt lat="44.79723" lon="1.69355">
        <ele>401.9140625</ele>
        <time>2015-09-15T15:32:09.949Z</time>
      </trkpt>
      <trkpt lat="44.79722" lon="1.69353">
        <ele>401.837371826</ele>
        <time>2015-09-15T15:32:10.818Z</time>
      </trkpt>
      <trkpt lat="44.79724" lon="1.69341">
        <ele>401.64074707</ele>
        <time>2015-09-15T15:32:16.922Z</time>
      </trkpt>
      <trkpt lat="44.79725" lon="1.6934">
        <ele>401.627319336</ele>
        <time>2015-09-15T15:32:17.872Z</time>
      </trkpt>
      <trkpt lat="44.79726" lon="1.69328">
        <ele>401.812103271</ele>
        <time>2015-09-15T15:32:26.861Z</time>
      </trkpt>
      <trkpt lat="44.79726" lon="1.69327">
        <ele>401.808288574</ele>
        <time>2015-09-15T15:32:27.792Z</time>
      </trkpt>
      <trkpt lat="44.79726" lon="1.69315">
        <ele>401.693084717</ele>
        <time>2015-09-15T15:32:34.924Z</time>
      </trkpt>
      <trkpt lat="44.79726" lon="1.69313">
        <ele>401.719024658</ele>
        <time>2015-09-15T15:32:35.807Z</time>
      </trkpt>
      <trkpt lat="44.79728" lon="1.69302">
        <ele>401.982177734</ele>
        <time>2015-09-15T15:32:43.913Z</time>
      </trkpt>
      <trkpt lat="44.79728" lon="1.69301">
        <ele>402.047241211</ele>
        <time>2015-09-15T15:32:44.828Z</time>
      </trkpt>
      <trkpt lat="44.79731" lon="1.69289">
        <ele>402.107269287</ele>
        <time>2015-09-15T15:32:51.124Z</time>
      </trkpt>
      <trkpt lat="44.79731" lon="1.69288">
        <ele>402.157653809</ele>
        <time>2015-09-15T15:32:51.821Z</time>
      </trkpt>
      <trkpt lat="44.79731" lon="1.69276">
        <ele>402.563110352</ele>
        <time>2015-09-15T15:32:57.906Z</time>
      </trkpt>
      <trkpt lat="44.79731" lon="1.69274">
        <ele>402.58190918</ele>
        <time>2015-09-15T15:32:58.796Z</time>
      </trkpt>
      <trkpt lat="44.79731" lon="1.69263">
        <ele>402.528167725</ele>
        <time>2015-09-15T15:33:04.927Z</time>
      </trkpt>
      <trkpt lat="44.79731" lon="1.69261">
        <ele>402.440979004</ele>
        <time>2015-09-15T15:33:05.717Z</time>
      </trkpt>
      <trkpt lat="44.79733" lon="1.6925">
        <ele>401.787109375</ele>
        <time>2015-09-15T15:33:13.978Z</time>
      </trkpt>
      <trkpt lat="44.79733" lon="1.69248">
        <ele>401.656066895</ele>
        <time>2015-09-15T15:33:14.827Z</time>
      </trkpt>
      <trkpt lat="44.79735" lon="1.69237">
        <ele>400.609588623</ele>
        <time>2015-09-15T15:33:27.527Z</time>
      </trkpt>
      <trkpt lat="44.79736" lon="1.69235">
        <ele>400.547180176</ele>
        <time>2015-09-15T15:33:27.754Z</time>
      </trkpt>
      <trkpt lat="44.79736" lon="1.69223">
        <ele>400.467315674</ele>
        <time>2015-09-15T15:33:35.462Z</time>
      </trkpt>
      <trkpt lat="44.79737" lon="1.69222">
        <ele>400.493835449</ele>
        <time>2015-09-15T15:33:36.478Z</time>
      </trkpt>
      <trkpt lat="44.79739" lon="1.69211">
        <ele>400.520843506</ele>
        <time>2015-09-15T15:33:41.553Z</time>
      </trkpt>
      <trkpt lat="44.79739" lon="1.69209">
        <ele>400.495117188</ele>
        <time>2015-09-15T15:33:42.555Z</time>
      </trkpt>
      <trkpt lat="44.7974" lon="1.69198">
        <ele>400.576538086</ele>
        <time>2015-09-15T15:33:48.715Z</time>
      </trkpt>
      <trkpt lat="44.7974" lon="1.69196">
        <ele>400.607421875</ele>
        <time>2015-09-15T15:33:49.481Z</time>
      </trkpt>
      <trkpt lat="44.7974" lon="1.69183">
        <ele>400.896972656</ele>
        <time>2015-09-15T15:33:57.533Z</time>
      </trkpt>
      <trkpt lat="44.7974" lon="1.69182">
        <ele>400.824676514</ele>
        <time>2015-09-15T15:33:58.437Z</time>
      </trkpt>
      <trkpt lat="44.79743" lon="1.6917">
        <ele>399.950164795</ele>
        <time>2015-09-15T15:34:08.503Z</time>
      </trkpt>
      <trkpt lat="44.79748" lon="1.69152">
        <ele>399.554779053</ele>
        <time>2015-09-15T15:34:20.565Z</time>
      </trkpt>
      <trkpt lat="44.79752" lon="1.69142">
        <ele>399.143432617</ele>
        <time>2015-09-15T15:34:26.661Z</time>
      </trkpt>
      <trkpt lat="44.79752" lon="1.69141">
        <ele>399.062225342</ele>
        <time>2015-09-15T15:34:27.594Z</time>
      </trkpt>
      <trkpt lat="44.79754" lon="1.69129">
        <ele>398.992431641</ele>
        <time>2015-09-15T15:34:48.764Z</time>
      </trkpt>
      <trkpt lat="44.79755" lon="1.69128">
        <ele>398.877441406</ele>
        <time>2015-09-15T15:34:49.476Z</time>
      </trkpt>
      <trkpt lat="44.79759" lon="1.69117">
        <ele>397.907714844</ele>
        <time>2015-09-15T15:34:57.648Z</time>
      </trkpt>
      <trkpt lat="44.79759" lon="1.69115">
        <ele>397.801696777</ele>
        <time>2015-09-15T15:34:58.52Z</time>
      </trkpt>
      <trkpt lat="44.79763" lon="1.69105">
        <ele>397.011016846</ele>
        <time>2015-09-15T15:35:04.523Z</time>
      </trkpt>
      <trkpt lat="44.79763" lon="1.69103">
        <ele>396.950531006</ele>
        <time>2015-09-15T15:35:05.508Z</time>
      </trkpt>
      <trkpt lat="44.79767" lon="1.69092">
        <ele>396.625396729</ele>
        <time>2015-09-15T15:35:14.591Z</time>
      </trkpt>
      <trkpt lat="44.79767" lon="1.6909">
        <ele>396.626922607</ele>
        <time>2015-09-15T15:35:15.547Z</time>
      </trkpt>
      <trkpt lat="44.79773" lon="1.69081">
        <ele>395.673309326</ele>
        <time>2015-09-15T15:35:36.653Z</time>
      </trkpt>
      <trkpt lat="44.79775" lon="1.69078">
        <ele>395.609619141</ele>
        <time>2015-09-15T15:35:37.566Z</time>
      </trkpt>
      <trkpt lat="44.79774" lon="1.69066">
        <ele>395.524475098</ele>
        <time>2015-09-15T15:35:57.687Z</time>
      </trkpt>
      <trkpt lat="44.79775" lon="1.69063">
        <ele>395.462677002</ele>
        <time>2015-09-15T15:35:58.561Z</time>
      </trkpt>
      <trkpt lat="44.79778" lon="1.69051">
        <ele>394.176208496</ele>
        <time>2015-09-15T15:36:10.643Z</time>
      </trkpt>
      <trkpt lat="44.79778" lon="1.6905">
        <ele>394.016937256</ele>
        <time>2015-09-15T15:36:11.548Z</time>
      </trkpt>
      <trkpt lat="44.79781" lon="1.69039">
        <ele>393.213470459</ele>
        <time>2015-09-15T15:36:22.582Z</time>
      </trkpt>
      <trkpt lat="44.79782" lon="1.69037">
        <ele>393.135467529</ele>
        <time>2015-09-15T15:36:23.517Z</time>
      </trkpt>
      <trkpt lat="44.79782" lon="1.69037">
        <ele>393.135467529</ele>
        <time>2015-09-15T15:36:23.639Z</time>
      </trkpt>
      <trkpt lat="44.79819" lon="1.68947">
        <ele>395.455841064</ele>
        <time>2015-09-15T15:37:26.539Z</time>
      </trkpt>
      <trkpt lat="44.79824" lon="1.68937">
        <ele>395.058898926</ele>
        <time>2015-09-15T15:37:34.979Z</time>
      </trkpt>
      <trkpt lat="44.79825" lon="1.68937">
        <ele>395.075439453</ele>
        <time>2015-09-15T15:37:35.548Z</time>
      </trkpt>
      <trkpt lat="44.79829" lon="1.68928">
        <ele>394.652038574</ele>
        <time>2015-09-15T15:37:43.712Z</time>
      </trkpt>
      <trkpt lat="44.79829" lon="1.68926">
        <ele>394.680145264</ele>
        <time>2015-09-15T15:37:44.601Z</time>
      </trkpt>
      <trkpt lat="44.79832" lon="1.68914">
        <ele>394.497436523</ele>
        <time>2015-09-15T15:37:53.664Z</time>
      </trkpt>
      <trkpt lat="44.79832" lon="1.68911">
        <ele>394.461303711</ele>
        <time>2015-09-15T15:37:54.543Z</time>
      </trkpt>
      <trkpt lat="44.79834" lon="1.689">
        <ele>394.219238281</ele>
        <time>2015-09-15T15:38:11.64Z</time>
      </trkpt>
      <trkpt lat="44.79834" lon="1.68899">
        <ele>394.206756592</ele>
        <time>2015-09-15T15:38:12.478Z</time>
      </trkpt>
      <trkpt lat="44.79835" lon="1.68888">
        <ele>393.610168457</ele>
        <time>2015-09-15T15:38:32.634Z</time>
      </trkpt>
      <trkpt lat="44.79835" lon="1.68885">
        <ele>393.610748291</ele>
        <time>2015-09-15T15:38:33.556Z</time>
      </trkpt>
      <trkpt lat="44.79837" lon="1.68873">
        <ele>393.847106934</ele>
        <time>2015-09-15T15:38:40.794Z</time>
      </trkpt>
      <trkpt lat="44.79837" lon="1.68871">
        <ele>393.882720947</ele>
        <time>2015-09-15T15:38:41.528Z</time>
      </trkpt>
      <trkpt lat="44.79844" lon="1.68863">
        <ele>394.089782715</ele>
        <time>2015-09-15T15:38:50.585Z</time>
      </trkpt>
      <trkpt lat="44.79844" lon="1.68862">
        <ele>394.101654053</ele>
        <time>2015-09-15T15:38:51.517Z</time>
      </trkpt>
      <trkpt lat="44.79848" lon="1.68851">
        <ele>393.971282959</ele>
        <time>2015-09-15T15:39:00.559Z</time>
      </trkpt>
      <trkpt lat="44.79848" lon="1.6885">
        <ele>394.01574707</ele>
        <time>2015-09-15T15:39:01.537Z</time>
      </trkpt>
      <trkpt lat="44.7985" lon="1.68837">
        <ele>394.566070557</ele>
        <time>2015-09-15T15:39:10.645Z</time>
      </trkpt>
      <trkpt lat="44.79851" lon="1.68836">
        <ele>394.683227539</ele>
        <time>2015-09-15T15:39:11.541Z</time>
      </trkpt>
      <trkpt lat="44.79854" lon="1.68825">
        <ele>395.710662842</ele>
        <time>2015-09-15T15:39:24.643Z</time>
      </trkpt>
      <trkpt lat="44.79854" lon="1.68822">
        <ele>395.817840576</ele>
        <time>2015-09-15T15:39:25.541Z</time>
      </trkpt>
      <trkpt lat="44.79858" lon="1.6881">
        <ele>396.393890381</ele>
        <time>2015-09-15T15:39:32.704Z</time>
      </trkpt>
      <trkpt lat="44.79858" lon="1.68809">
        <ele>396.39932251</ele>
        <time>2015-09-15T15:39:33.539Z</time>
      </trkpt>
      <trkpt lat="44.79862" lon="1.68801">
        <ele>396.412994385</ele>
        <time>2015-09-15T15:39:38.567Z</time>
      </trkpt>
      <trkpt lat="44.79864" lon="1.68799">
        <ele>396.339019775</ele>
        <time>2015-09-15T15:39:39.559Z</time>
      </trkpt>
      <trkpt lat="44.79865" lon="1.68788">
        <ele>396.048095703</ele>
        <time>2015-09-15T15:39:44.634Z</time>
      </trkpt>
      <trkpt lat="44.79866" lon="1.68787">
        <ele>396.037963867</ele>
        <time>2015-09-15T15:39:45.552Z</time>
      </trkpt>
      <trkpt lat="44.79867" lon="1.68774">
        <ele>395.782318115</ele>
        <time>2015-09-15T15:39:55.649Z</time>
      </trkpt>
      <trkpt lat="44.79867" lon="1.68774">
        <ele>395.680938721</ele>
        <time>2015-09-15T15:39:56.55Z</time>
      </trkpt>
      <trkpt lat="44.79868" lon="1.68762">
        <ele>395.491943359</ele>
        <time>2015-09-15T15:40:04.648Z</time>
      </trkpt>
      <trkpt lat="44.79869" lon="1.68761">
        <ele>395.486877441</ele>
        <time>2015-09-15T15:40:05.539Z</time>
      </trkpt>
      <trkpt lat="44.79869" lon="1.68748">
        <ele>394.983581543</ele>
        <time>2015-09-15T15:40:12.689Z</time>
      </trkpt>
      <trkpt lat="44.79869" lon="1.68746">
        <ele>394.947143555</ele>
        <time>2015-09-15T15:40:13.41Z</time>
      </trkpt>
      <trkpt lat="44.79869" lon="1.68734">
        <ele>394.997955322</ele>
        <time>2015-09-15T15:40:20.845Z</time>
      </trkpt>
      <trkpt lat="44.79868" lon="1.68733">
        <ele>394.969024658</ele>
        <time>2015-09-15T15:40:21.424Z</time>
      </trkpt>
      <trkpt lat="44.79868" lon="1.68721">
        <ele>394.124633789</ele>
        <time>2015-09-15T15:40:31.586Z</time>
      </trkpt>
      <trkpt lat="44.79868" lon="1.6872">
        <ele>394.0753479</ele>
        <time>2015-09-15T15:40:32.508Z</time>
      </trkpt>
      <trkpt lat="44.79868" lon="1.68707">
        <ele>394.022857666</ele>
        <time>2015-09-15T15:40:40.651Z</time>
      </trkpt>
      <trkpt lat="44.79868" lon="1.68705">
        <ele>394.035369873</ele>
        <time>2015-09-15T15:40:41.525Z</time>
      </trkpt>
      <trkpt lat="44.79868" lon="1.68694">
        <ele>393.848327637</ele>
        <time>2015-09-15T15:40:48.936Z</time>
      </trkpt>
      <trkpt lat="44.79867" lon="1.68692">
        <ele>393.830535889</ele>
        <time>2015-09-15T15:40:49.41Z</time>
      </trkpt>
      <trkpt lat="44.79868" lon="1.68681">
        <ele>393.986907959</ele>
        <time>2015-09-15T15:40:58.583Z</time>
      </trkpt>
      <trkpt lat="44.79868" lon="1.68679">
        <ele>393.980316162</ele>
        <time>2015-09-15T15:40:59.502Z</time>
      </trkpt>
      <trkpt lat="44.79868" lon="1.68666">
        <ele>393.52142334</ele>
        <time>2015-09-15T15:41:07.571Z</time>
      </trkpt>
      <trkpt lat="44.79868" lon="1.68664">
        <ele>393.451477051</ele>
        <time>2015-09-15T15:41:08.48Z</time>
      </trkpt>
      <trkpt lat="44.79869" lon="1.68652">
        <ele>392.89553833</ele>
        <time>2015-09-15T15:41:15.692Z</time>
      </trkpt>
      <trkpt lat="44.79869" lon="1.6865">
        <ele>392.821105957</ele>
        <time>2015-09-15T15:41:16.429Z</time>
      </trkpt>
      <trkpt lat="44.79871" lon="1.68638">
        <ele>391.551879883</ele>
        <time>2015-09-15T15:41:24.553Z</time>
      </trkpt>
      <trkpt lat="44.79871" lon="1.68636">
        <ele>391.32232666</ele>
        <time>2015-09-15T15:41:25.485Z</time>
      </trkpt>
      <trkpt lat="44.79874" lon="1.68624">
        <ele>388.111297607</ele>
        <time>2015-09-15T15:41:36.558Z</time>
      </trkpt>
      <trkpt lat="44.79874" lon="1.68623">
        <ele>388.007995605</ele>
        <time>2015-09-15T15:41:37.48Z</time>
      </trkpt>
      <trkpt lat="44.79876" lon="1.68612">
        <ele>387.513885498</ele>
        <time>2015-09-15T15:41:43.841Z</time>
      </trkpt>
      <trkpt lat="44.79876" lon="1.6861">
        <ele>387.412261963</ele>
        <time>2015-09-15T15:41:44.485Z</time>
      </trkpt>
      <trkpt lat="44.79874" lon="1.68597">
        <ele>386.161895752</ele>
        <time>2015-09-15T15:41:54.202Z</time>
      </trkpt>
      <trkpt lat="44.79874" lon="1.68595">
        <ele>385.989013672</ele>
        <time>2015-09-15T15:41:54.428Z</time>
      </trkpt>
      <trkpt lat="44.79876" lon="1.68583">
        <ele>385.376953125</ele>
        <time>2015-09-15T15:41:59.686Z</time>
      </trkpt>
      <trkpt lat="44.79876" lon="1.68581">
        <ele>385.319335938</ele>
        <time>2015-09-15T15:42:00.495Z</time>
      </trkpt>
      <trkpt lat="44.79881" lon="1.68572">
        <ele>384.99432373</ele>
        <time>2015-09-15T15:42:09.576Z</time>
      </trkpt>
      <trkpt lat="44.79881" lon="1.68569">
        <ele>384.967254639</ele>
        <time>2015-09-15T15:42:10.47Z</time>
      </trkpt>
      <trkpt lat="44.79885" lon="1.68558">
        <ele>383.449432373</ele>
        <time>2015-09-15T15:42:20.653Z</time>
      </trkpt>
      <trkpt lat="44.79885" lon="1.68557">
        <ele>383.273162842</ele>
        <time>2015-09-15T15:42:21.512Z</time>
      </trkpt>
      <trkpt lat="44.7989" lon="1.68546">
        <ele>381.659088135</ele>
        <time>2015-09-15T15:42:28.594Z</time>
      </trkpt>
      <trkpt lat="44.79891" lon="1.68543">
        <ele>381.397979736</ele>
        <time>2015-09-15T15:42:29.497Z</time>
      </trkpt>
      <trkpt lat="44.7989" lon="1.68532">
        <ele>379.289672852</ele>
        <time>2015-09-15T15:42:47.473Z</time>
      </trkpt>
      <trkpt lat="44.79889" lon="1.68531">
        <ele>379.269927979</ele>
        <time>2015-09-15T15:42:48.436Z</time>
      </trkpt>
      <trkpt lat="44.79887" lon="1.6852">
        <ele>378.213806152</ele>
        <time>2015-09-15T15:43:05.594Z</time>
      </trkpt>
      <trkpt lat="44.79887" lon="1.68518">
        <ele>378.239715576</ele>
        <time>2015-09-15T15:43:06.489Z</time>
      </trkpt>
      <trkpt lat="44.7989" lon="1.68507">
        <ele>378.590789795</ele>
        <time>2015-09-15T15:43:12.597Z</time>
      </trkpt>
      <trkpt lat="44.79891" lon="1.68504">
        <ele>378.663787842</ele>
        <time>2015-09-15T15:43:13.508Z</time>
      </trkpt>
      <trkpt lat="44.7989" lon="1.68494">
        <ele>378.757904053</ele>
        <time>2015-09-15T15:43:19.514Z</time>
      </trkpt>
      <trkpt lat="44.7989" lon="1.68491">
        <ele>378.838867188</ele>
        <time>2015-09-15T15:43:20.521Z</time>
      </trkpt>
      <trkpt lat="44.7989" lon="1.6848">
        <ele>379.692047119</ele>
        <time>2015-09-15T15:43:29.777Z</time>
      </trkpt>
      <trkpt lat="44.79891" lon="1.68479">
        <ele>379.726959229</ele>
        <time>2015-09-15T15:43:30.493Z</time>
      </trkpt>
      <trkpt lat="44.79892" lon="1.68467">
        <ele>379.660614014</ele>
        <time>2015-09-15T15:43:40.142Z</time>
      </trkpt>
      <trkpt lat="44.79892" lon="1.68465">
        <ele>379.537261963</ele>
        <time>2015-09-15T15:43:40.404Z</time>
      </trkpt>
      <trkpt lat="44.79894" lon="1.68453">
        <ele>378.299285889</ele>
        <time>2015-09-15T15:43:49.506Z</time>
      </trkpt>
      <trkpt lat="44.79895" lon="1.68453">
        <ele>378.160461426</ele>
        <time>2015-09-15T15:43:50.508Z</time>
      </trkpt>
      <trkpt lat="44.79898" lon="1.68444">
        <ele>377.449798584</ele>
        <time>2015-09-15T15:44:01.599Z</time>
      </trkpt>
      <trkpt lat="44.79899" lon="1.68442">
        <ele>377.435150146</ele>
        <time>2015-09-15T15:44:02.583Z</time>
      </trkpt>
      <trkpt lat="44.79903" lon="1.68432">
        <ele>377.092498779</ele>
        <time>2015-09-15T15:44:11.814Z</time>
      </trkpt>
      <trkpt lat="44.79903" lon="1.6843">
        <ele>377.037414551</ele>
        <time>2015-09-15T15:44:12.496Z</time>
      </trkpt>
      <trkpt lat="44.79907" lon="1.6842">
        <ele>376.508850098</ele>
        <time>2015-09-15T15:44:19.566Z</time>
      </trkpt>
      <trkpt lat="44.79908" lon="1.6842">
        <ele>376.464141846</ele>
        <time>2015-09-15T15:44:20.481Z</time>
      </trkpt>
      <trkpt lat="44.79914" lon="1.68411">
        <ele>376.213500977</ele>
        <time>2015-09-15T15:44:30.793Z</time>
      </trkpt>
      <trkpt lat="44.79915" lon="1.6841">
        <ele>376.263183594</ele>
        <time>2015-09-15T15:44:31.757Z</time>
      </trkpt>
      <trkpt lat="44.79918" lon="1.684">
        <ele>376.356750488</ele>
        <time>2015-09-15T15:44:39.146Z</time>
      </trkpt>
      <trkpt lat="44.79919" lon="1.68398">
        <ele>376.280853271</ele>
        <time>2015-09-15T15:44:39.784Z</time>
      </trkpt>
      <trkpt lat="44.79921" lon="1.68387">
        <ele>375.078796387</ele>
        <time>2015-09-15T15:44:47.999Z</time>
      </trkpt>
      <trkpt lat="44.79922" lon="1.68385">
        <ele>374.861602783</ele>
        <time>2015-09-15T15:44:48.833Z</time>
      </trkpt>
      <trkpt lat="44.79927" lon="1.68375">
        <ele>373.384918213</ele>
        <time>2015-09-15T15:44:57.945Z</time>
      </trkpt>
      <trkpt lat="44.79928" lon="1.68373">
        <ele>373.208221436</ele>
        <time>2015-09-15T15:44:58.844Z</time>
      </trkpt>
      <trkpt lat="44.79935" lon="1.68366">
        <ele>371.466766357</ele>
        <time>2015-09-15T15:45:09.894Z</time>
      </trkpt>
      <trkpt lat="44.79936" lon="1.68366">
        <ele>371.233734131</ele>
        <time>2015-09-15T15:45:10.783Z</time>
      </trkpt>
      <trkpt lat="44.79944" lon="1.68362">
        <ele>368.929290771</ele>
        <time>2015-09-15T15:45:39.852Z</time>
      </trkpt>
      <trkpt lat="44.79945" lon="1.68363">
        <ele>368.770446777</ele>
        <time>2015-09-15T15:45:40.867Z</time>
      </trkpt>
      <trkpt lat="44.79951" lon="1.68369">
        <ele>368.026306152</ele>
        <time>2015-09-15T15:45:55.983Z</time>
      </trkpt>
      <trkpt lat="44.79952" lon="1.68371">
        <ele>368.01739502</ele>
        <time>2015-09-15T15:45:56.858Z</time>
      </trkpt>
      <trkpt lat="44.79957" lon="1.68381">
        <ele>367.682495117</ele>
        <time>2015-09-15T15:46:06.896Z</time>
      </trkpt>
      <trkpt lat="44.79957" lon="1.68382">
        <ele>367.678741455</ele>
        <time>2015-09-15T15:46:07.817Z</time>
      </trkpt>
      <trkpt lat="44.79965" lon="1.68386">
        <ele>367.706848145</ele>
        <time>2015-09-15T15:46:16.96Z</time>
      </trkpt>
      <trkpt lat="44.79966" lon="1.68386">
        <ele>367.772338867</ele>
        <time>2015-09-15T15:46:17.841Z</time>
      </trkpt>
      <trkpt lat="44.79974" lon="1.68384">
        <ele>368.04888916</ele>
        <time>2015-09-15T15:46:24.772Z</time>
      </trkpt>
      <trkpt lat="44.79975" lon="1.68383">
        <ele>368.129333496</ele>
        <time>2015-09-15T15:46:25.83Z</time>
      </trkpt>
      <trkpt lat="44.7998" lon="1.68375">
        <ele>368.440765381</ele>
        <time>2015-09-15T15:46:31.916Z</time>
      </trkpt>
      <trkpt lat="44.79981" lon="1.68373">
        <ele>368.408081055</ele>
        <time>2015-09-15T15:46:32.81Z</time>
      </trkpt>
      <trkpt lat="44.79985" lon="1.68365">
        <ele>368.74017334</ele>
        <time>2015-09-15T15:46:59.982Z</time>
      </trkpt>
      <trkpt lat="44.79986" lon="1.68362">
        <ele>368.655426025</ele>
        <time>2015-09-15T15:47:00.779Z</time>
      </trkpt>
      <trkpt lat="44.79987" lon="1.68355">
        <ele>368.487976074</ele>
        <time>2015-09-15T15:47:03.94Z</time>
      </trkpt>
      <trkpt lat="44.79985" lon="1.68324">
        <ele>367.650878906</ele>
        <time>2015-09-15T15:47:26.841Z</time>
      </trkpt>
      <trkpt lat="44.79986" lon="1.68312">
        <ele>364.585845947</ele>
        <time>2015-09-15T15:48:03.936Z</time>
      </trkpt>
      <trkpt lat="44.79985" lon="1.68311">
        <ele>364.349731445</ele>
        <time>2015-09-15T15:48:04.841Z</time>
      </trkpt>
      <trkpt lat="44.79981" lon="1.68301">
        <ele>362.707305908</ele>
        <time>2015-09-15T15:48:11.95Z</time>
      </trkpt>
      <trkpt lat="44.79981" lon="1.68299">
        <ele>362.542602539</ele>
        <time>2015-09-15T15:48:12.904Z</time>
      </trkpt>
      <trkpt lat="44.7998" lon="1.68287">
        <ele>361.765136719</ele>
        <time>2015-09-15T15:48:19.935Z</time>
      </trkpt>
      <trkpt lat="44.7998" lon="1.68286">
        <ele>361.739532471</ele>
        <time>2015-09-15T15:48:20.87Z</time>
      </trkpt>
      <trkpt lat="44.79988" lon="1.68283">
        <ele>359.52243042</ele>
        <time>2015-09-15T15:48:44.959Z</time>
      </trkpt>
      <trkpt lat="44.79989" lon="1.68282">
        <ele>359.535369873</ele>
        <time>2015-09-15T15:48:45.74Z</time>
      </trkpt>
      <trkpt lat="44.79998" lon="1.68284">
        <ele>359.573242188</ele>
        <time>2015-09-15T15:48:55.968Z</time>
      </trkpt>
      <trkpt lat="44.79999" lon="1.68285">
        <ele>359.547637939</ele>
        <time>2015-09-15T15:48:56.777Z</time>
      </trkpt>
      <trkpt lat="44.80006" lon="1.68291">
        <ele>359.017211914</ele>
        <time>2015-09-15T15:49:08.021Z</time>
      </trkpt>
      <trkpt lat="44.80007" lon="1.68291">
        <ele>358.931427002</ele>
        <time>2015-09-15T15:49:08.78Z</time>
      </trkpt>
      <trkpt lat="44.80007" lon="1.68292">
        <ele>358.907104492</ele>
        <time>2015-09-15T15:49:09.817Z</time>
      </trkpt>
      <trkpt lat="44.80014" lon="1.68394">
        <ele>354.769866943</ele>
        <time>2015-09-15T15:50:35.069Z</time>
      </trkpt>
      <trkpt lat="44.80017" lon="1.68403">
        <ele>355.076538086</ele>
        <time>2015-09-15T15:50:49.917Z</time>
      </trkpt>
      <trkpt lat="44.80017" lon="1.68407">
        <ele>355.027099609</ele>
        <time>2015-09-15T15:50:50.963Z</time>
      </trkpt>
      <trkpt lat="44.80013" lon="1.68413">
        <ele>354.358856201</ele>
        <time>2015-09-15T15:51:00.233Z</time>
      </trkpt>
      <trkpt lat="44.80014" lon="1.68419">
        <ele>354.314483643</ele>
        <time>2015-09-15T15:51:00.929Z</time>
      </trkpt>
      <trkpt lat="44.80013" lon="1.68429">
        <ele>353.756500244</ele>
        <time>2015-09-15T15:51:07.09Z</time>
      </trkpt>
      <trkpt lat="44.80013" lon="1.68432">
        <ele>353.720245361</ele>
        <time>2015-09-15T15:51:07.978Z</time>
      </trkpt>
      <trkpt lat="44.80013" lon="1.68444">
        <ele>353.634796143</ele>
        <time>2015-09-15T15:51:16.082Z</time>
      </trkpt>
      <trkpt lat="44.80013" lon="1.68445">
        <ele>353.620452881</ele>
        <time>2015-09-15T15:51:16.981Z</time>
      </trkpt>
      <trkpt lat="44.80012" lon="1.68458">
        <ele>352.765716553</ele>
        <time>2015-09-15T15:51:31.085Z</time>
      </trkpt>
      <trkpt lat="44.80012" lon="1.68459">
        <ele>352.691009521</ele>
        <time>2015-09-15T15:51:31.973Z</time>
      </trkpt>
      <trkpt lat="44.80014" lon="1.68468">
        <ele>352.523040771</ele>
        <time>2015-09-15T15:51:35.259Z</time>
      </trkpt>
      <trkpt lat="44.80015" lon="1.68471">
        <ele>352.516693115</ele>
        <time>2015-09-15T15:51:35.938Z</time>
      </trkpt>
      <trkpt lat="44.80019" lon="1.68477">
        <ele>352.599884033</ele>
        <time>2015-09-15T15:51:40.107Z</time>
      </trkpt>
      <trkpt lat="44.80022" lon="1.68483">
        <ele>352.599761963</ele>
        <time>2015-09-15T15:51:40.877Z</time>
      </trkpt>
      <trkpt lat="44.80026" lon="1.68493">
        <ele>352.645996094</ele>
        <time>2015-09-15T15:51:46.119Z</time>
      </trkpt>
      <trkpt lat="44.80027" lon="1.68494">
        <ele>352.599151611</ele>
        <time>2015-09-15T15:51:46.985Z</time>
      </trkpt>
      <trkpt lat="44.80033" lon="1.685">
        <ele>352.115814209</ele>
        <time>2015-09-15T15:51:53.095Z</time>
      </trkpt>
      <trkpt lat="44.80035" lon="1.68501">
        <ele>351.957733154</ele>
        <time>2015-09-15T15:51:53.982Z</time>
      </trkpt>
      <trkpt lat="44.8004" lon="1.68511">
        <ele>349.841369629</ele>
        <time>2015-09-15T15:52:04.058Z</time>
      </trkpt>
      <trkpt lat="44.8004" lon="1.68512">
        <ele>349.595001221</ele>
        <time>2015-09-15T15:52:04.96Z</time>
      </trkpt>
      <trkpt lat="44.80046" lon="1.68519">
        <ele>347.925445557</ele>
        <time>2015-09-15T15:52:11.024Z</time>
      </trkpt>
      <trkpt lat="44.80047" lon="1.6852">
        <ele>347.772735596</ele>
        <time>2015-09-15T15:52:11.954Z</time>
      </trkpt>
      <trkpt lat="44.80055" lon="1.68527">
        <ele>346.612060547</ele>
        <time>2015-09-15T15:52:20.097Z</time>
      </trkpt>
      <trkpt lat="44.80055" lon="1.68528">
        <ele>346.484985352</ele>
        <time>2015-09-15T15:52:20.98Z</time>
      </trkpt>
      <trkpt lat="44.8006" lon="1.68536">
        <ele>344.670349121</ele>
        <time>2015-09-15T15:52:31.083Z</time>
      </trkpt>
      <trkpt lat="44.80062" lon="1.68538">
        <ele>344.599853516</ele>
        <time>2015-09-15T15:52:31.993Z</time>
      </trkpt>
      <trkpt lat="44.80068" lon="1.68543">
        <ele>343.615631104</ele>
        <time>2015-09-15T15:52:40.094Z</time>
      </trkpt>
      <trkpt lat="44.8007" lon="1.68545">
        <ele>343.439941406</ele>
        <time>2015-09-15T15:52:40.988Z</time>
      </trkpt>
      <trkpt lat="44.80076" lon="1.6855">
        <ele>342.33416748</ele>
        <time>2015-09-15T15:52:47.079Z</time>
      </trkpt>
      <trkpt lat="44.80077" lon="1.68552">
        <ele>342.093292236</ele>
        <time>2015-09-15T15:52:47.977Z</time>
      </trkpt>
      <trkpt lat="44.80083" lon="1.6856">
        <ele>338.954406738</ele>
        <time>2015-09-15T15:52:59.091Z</time>
      </trkpt>
      <trkpt lat="44.80083" lon="1.68561">
        <ele>338.610565186</ele>
        <time>2015-09-15T15:52:59.963Z</time>
      </trkpt>
      <trkpt lat="44.80088" lon="1.6857">
        <ele>336.962127686</ele>
        <time>2015-09-15T15:53:08.055Z</time>
      </trkpt>
      <trkpt lat="44.80089" lon="1.68571">
        <ele>336.846343994</ele>
        <time>2015-09-15T15:53:08.974Z</time>
      </trkpt>
      <trkpt lat="44.80095" lon="1.68578">
        <ele>336.114929199</ele>
        <time>2015-09-15T15:53:16.088Z</time>
      </trkpt>
      <trkpt lat="44.80096" lon="1.6858">
        <ele>335.96270752</ele>
        <time>2015-09-15T15:53:17.031Z</time>
      </trkpt>
      <trkpt lat="44.80097" lon="1.68591">
        <ele>335.432617188</ele>
        <time>2015-09-15T15:53:24.076Z</time>
      </trkpt>
      <trkpt lat="44.80098" lon="1.68592">
        <ele>335.420318604</ele>
        <time>2015-09-15T15:53:24.972Z</time>
      </trkpt>
      <trkpt lat="44.80099" lon="1.68603">
        <ele>335.157287598</ele>
        <time>2015-09-15T15:53:29.991Z</time>
      </trkpt>
      <trkpt lat="44.80099" lon="1.68605">
        <ele>335.048828125</ele>
        <time>2015-09-15T15:53:30.977Z</time>
      </trkpt>
      <trkpt lat="44.80103" lon="1.68617">
        <ele>334.074310303</ele>
        <time>2015-09-15T15:53:40.238Z</time>
      </trkpt>
      <trkpt lat="44.80103" lon="1.68618">
        <ele>333.946563721</ele>
        <time>2015-09-15T15:53:40.998Z</time>
      </trkpt>
      <trkpt lat="44.80107" lon="1.68629">
        <ele>333.397460938</ele>
        <time>2015-09-15T15:53:51.076Z</time>
      </trkpt>
      <trkpt lat="44.80107" lon="1.6863">
        <ele>333.370330811</ele>
        <time>2015-09-15T15:53:51.977Z</time>
      </trkpt>
      <trkpt lat="44.80112" lon="1.68639">
        <ele>333.145751953</ele>
        <time>2015-09-15T15:53:57.077Z</time>
      </trkpt>
      <trkpt lat="44.80113" lon="1.6864">
        <ele>333.081542969</ele>
        <time>2015-09-15T15:53:57.976Z</time>
      </trkpt>
      <trkpt lat="44.80118" lon="1.6865">
        <ele>332.675842285</ele>
        <time>2015-09-15T15:54:06.021Z</time>
      </trkpt>
      <trkpt lat="44.80118" lon="1.6865">
        <ele>332.586212158</ele>
        <time>2015-09-15T15:54:06.952Z</time>
      </trkpt>
      <trkpt lat="44.80124" lon="1.68661">
        <ele>332.092773438</ele>
        <time>2015-09-15T15:54:15.079Z</time>
      </trkpt>
      <trkpt lat="44.80124" lon="1.68662">
        <ele>332.06918335</ele>
        <time>2015-09-15T15:54:15.977Z</time>
      </trkpt>
      <trkpt lat="44.80128" lon="1.68672">
        <ele>331.584655762</ele>
        <time>2015-09-15T15:54:22.079Z</time>
      </trkpt>
      <trkpt lat="44.80129" lon="1.68674">
        <ele>331.45501709</ele>
        <time>2015-09-15T15:54:23.037Z</time>
      </trkpt>
      <trkpt lat="44.80132" lon="1.68686">
        <ele>330.947601318</ele>
        <time>2015-09-15T15:54:29.077Z</time>
      </trkpt>
      <trkpt lat="44.80132" lon="1.68687">
        <ele>330.792877197</ele>
        <time>2015-09-15T15:54:29.976Z</time>
      </trkpt>
      <trkpt lat="44.80134" lon="1.68698">
        <ele>329.610961914</ele>
        <time>2015-09-15T15:54:39.077Z</time>
      </trkpt>
      <trkpt lat="44.80134" lon="1.687">
        <ele>329.556243896</ele>
        <time>2015-09-15T15:54:39.968Z</time>
      </trkpt>
      <trkpt lat="44.80137" lon="1.68712">
        <ele>329.426818848</ele>
        <time>2015-09-15T15:54:48.114Z</time>
      </trkpt>
      <trkpt lat="44.80137" lon="1.68713">
        <ele>329.473236084</ele>
        <time>2015-09-15T15:54:48.989Z</time>
      </trkpt>
      <trkpt lat="44.80139" lon="1.68725">
        <ele>329.274353027</ele>
        <time>2015-09-15T15:54:57.098Z</time>
      </trkpt>
      <trkpt lat="44.8014" lon="1.68726">
        <ele>329.289093018</ele>
        <time>2015-09-15T15:54:57.98Z</time>
      </trkpt>
      <trkpt lat="44.80145" lon="1.68736">
        <ele>329.114685059</ele>
        <time>2015-09-15T15:55:06.082Z</time>
      </trkpt>
      <trkpt lat="44.80145" lon="1.68737">
        <ele>329.042205811</ele>
        <time>2015-09-15T15:55:06.99Z</time>
      </trkpt>
      <trkpt lat="44.80149" lon="1.68747">
        <ele>328.59463501</ele>
        <time>2015-09-15T15:55:14.762Z</time>
      </trkpt>
      <trkpt lat="44.8015" lon="1.68749">
        <ele>328.448822021</ele>
        <time>2015-09-15T15:55:14.884Z</time>
      </trkpt>
      <trkpt lat="44.80152" lon="1.68761">
        <ele>327.959228516</ele>
        <time>2015-09-15T15:55:22.082Z</time>
      </trkpt>
      <trkpt lat="44.80153" lon="1.68762">
        <ele>327.864807129</ele>
        <time>2015-09-15T15:55:22.988Z</time>
      </trkpt>
      <trkpt lat="44.80157" lon="1.68771">
        <ele>327.089538574</ele>
        <time>2015-09-15T15:55:30.178Z</time>
      </trkpt>
      <trkpt lat="44.80158" lon="1.68772">
        <ele>326.975799561</ele>
        <time>2015-09-15T15:55:30.912Z</time>
      </trkpt>
      <trkpt lat="44.80161" lon="1.68782">
        <ele>326.980285645</ele>
        <time>2015-09-15T15:55:39.08Z</time>
      </trkpt>
      <trkpt lat="44.80162" lon="1.68785">
        <ele>327.028564453</ele>
        <time>2015-09-15T15:55:39.997Z</time>
      </trkpt>
      <trkpt lat="44.80165" lon="1.68795">
        <ele>326.908081055</ele>
        <time>2015-09-15T15:55:46.162Z</time>
      </trkpt>
      <trkpt lat="44.80166" lon="1.68797">
        <ele>326.904815674</ele>
        <time>2015-09-15T15:55:46.876Z</time>
      </trkpt>
      <trkpt lat="44.80169" lon="1.68807">
        <ele>326.890869141</ele>
        <time>2015-09-15T15:55:54.121Z</time>
      </trkpt>
      <trkpt lat="44.8017" lon="1.68809">
        <ele>326.932556152</ele>
        <time>2015-09-15T15:55:55.018Z</time>
      </trkpt>
      <trkpt lat="44.80173" lon="1.68819">
        <ele>327.031402588</ele>
        <time>2015-09-15T15:56:02.077Z</time>
      </trkpt>
      <trkpt lat="44.80173" lon="1.68822">
        <ele>327.009613037</ele>
        <time>2015-09-15T15:56:03.173Z</time>
      </trkpt>
      <trkpt lat="44.80174" lon="1.68833">
        <ele>326.014434814</ele>
        <time>2015-09-15T15:56:12.097Z</time>
      </trkpt>
      <trkpt lat="44.80175" lon="1.68835">
        <ele>325.92388916</ele>
        <time>2015-09-15T15:56:13.002Z</time>
      </trkpt>
      <trkpt lat="44.80178" lon="1.68846">
        <ele>325.644866943</ele>
        <time>2015-09-15T15:56:21.021Z</time>
      </trkpt>
      <trkpt lat="44.80178" lon="1.68848">
        <ele>325.611999512</ele>
        <time>2015-09-15T15:56:21.958Z</time>
      </trkpt>
      <trkpt lat="44.80182" lon="1.68857">
        <ele>325.56829834</ele>
        <time>2015-09-15T15:56:30.022Z</time>
      </trkpt>
      <trkpt lat="44.80183" lon="1.6886">
        <ele>325.476837158</ele>
        <time>2015-09-15T15:56:30.96Z</time>
      </trkpt>
      <trkpt lat="44.80187" lon="1.68869">
        <ele>325.068115234</ele>
        <time>2015-09-15T15:56:35.046Z</time>
      </trkpt>
      <trkpt lat="44.80187" lon="1.68871">
        <ele>324.94519043</ele>
        <time>2015-09-15T15:56:36.013Z</time>
      </trkpt>
      <trkpt lat="44.80193" lon="1.6888">
        <ele>323.659606934</ele>
        <time>2015-09-15T15:56:47.15Z</time>
      </trkpt>
      <trkpt lat="44.80194" lon="1.68879">
        <ele>323.583587646</ele>
        <time>2015-09-15T15:56:48.024Z</time>
      </trkpt>
      <trkpt lat="44.80202" lon="1.68886">
        <ele>323.94128418</ele>
        <time>2015-09-15T15:57:56.936Z</time>
      </trkpt>
      <trkpt lat="44.80202" lon="1.68886">
        <ele>323.938873291</ele>
        <time>2015-09-15T15:57:57.982Z</time>
      </trkpt>
      <trkpt lat="44.80211" lon="1.68887">
        <ele>326.307495117</ele>
        <time>2015-09-15T15:59:06.896Z</time>
      </trkpt>
      <trkpt lat="44.80212" lon="1.68887">
        <ele>326.187988281</ele>
        <time>2015-09-15T15:59:07.995Z</time>
      </trkpt>
      <trkpt lat="44.80221" lon="1.68891">
        <ele>325.96496582</ele>
        <time>2015-09-15T15:59:14.079Z</time>
      </trkpt>
      <trkpt lat="44.80222" lon="1.68891">
        <ele>325.855316162</ele>
        <time>2015-09-15T15:59:14.969Z</time>
      </trkpt>
      <trkpt lat="44.8023" lon="1.68893">
        <ele>324.877380371</ele>
        <time>2015-09-15T15:59:20.964Z</time>
      </trkpt>
      <trkpt lat="44.80231" lon="1.68894">
        <ele>324.691589355</ele>
        <time>2015-09-15T15:59:21.985Z</time>
      </trkpt>
      <trkpt lat="44.80234" lon="1.68906">
        <ele>322.869171143</ele>
        <time>2015-09-15T15:59:32.985Z</time>
      </trkpt>
      <trkpt lat="44.80234" lon="1.68908">
        <ele>322.831268311</ele>
        <time>2015-09-15T15:59:33.987Z</time>
      </trkpt>
      <trkpt lat="44.80234" lon="1.68919">
        <ele>322.684967041</ele>
        <time>2015-09-15T15:59:39.199Z</time>
      </trkpt>
      <trkpt lat="44.80234" lon="1.6892">
        <ele>322.639892578</ele>
        <time>2015-09-15T15:59:39.908Z</time>
      </trkpt>
      <trkpt lat="44.80235" lon="1.6893">
        <ele>322.145812988</ele>
        <time>2015-09-15T15:59:46.08Z</time>
      </trkpt>
      <trkpt lat="44.80236" lon="1.68933">
        <ele>322.026306152</ele>
        <time>2015-09-15T15:59:46.978Z</time>
      </trkpt>
      <trkpt lat="44.80237" lon="1.68945">
        <ele>321.285125732</ele>
        <time>2015-09-15T15:59:55.135Z</time>
      </trkpt>
      <trkpt lat="44.80237" lon="1.68946">
        <ele>321.318328857</ele>
        <time>2015-09-15T15:59:55.985Z</time>
      </trkpt>
      <trkpt lat="44.80237" lon="1.68959">
        <ele>321.045043945</ele>
        <time>2015-09-15T16:00:08.089Z</time>
      </trkpt>
      <trkpt lat="44.80238" lon="1.6896">
        <ele>321.021728516</ele>
        <time>2015-09-15T16:00:08.976Z</time>
      </trkpt>
      <trkpt lat="44.80241" lon="1.6897">
        <ele>321.503936768</ele>
        <time>2015-09-15T16:00:15.117Z</time>
      </trkpt>
      <trkpt lat="44.80241" lon="1.68972">
        <ele>321.609954834</ele>
        <time>2015-09-15T16:00:15.935Z</time>
      </trkpt>
      <trkpt lat="44.80243" lon="1.68984">
        <ele>321.939056396</ele>
        <time>2015-09-15T16:00:25.909Z</time>
      </trkpt>
      <trkpt lat="44.80243" lon="1.68987">
        <ele>321.903778076</ele>
        <time>2015-09-15T16:00:26.877Z</time>
      </trkpt>
      <trkpt lat="44.80251" lon="1.68991">
        <ele>322.315612793</ele>
        <time>2015-09-15T16:01:12.04Z</time>
      </trkpt>
      <trkpt lat="44.80252" lon="1.68991">
        <ele>322.243652344</ele>
        <time>2015-09-15T16:01:12.926Z</time>
      </trkpt>
      <trkpt lat="44.80258" lon="1.68997">
        <ele>321.660095215</ele>
        <time>2015-09-15T16:07:13.079Z</time>
      </trkpt>
      <trkpt lat="44.80258" lon="1.69">
        <ele>321.564147949</ele>
        <time>2015-09-15T16:07:14.012Z</time>
      </trkpt>
      <trkpt lat="44.80259" lon="1.69012">
        <ele>322.03692627</ele>
        <time>2015-09-15T16:07:26.087Z</time>
      </trkpt>
      <trkpt lat="44.80259" lon="1.69013">
        <ele>322.056488037</ele>
        <time>2015-09-15T16:07:26.872Z</time>
      </trkpt>
      <trkpt lat="44.80263" lon="1.69024">
        <ele>322.101837158</ele>
        <time>2015-09-15T16:07:34.996Z</time>
      </trkpt>
      <trkpt lat="44.80263" lon="1.69025">
        <ele>322.149749756</ele>
        <time>2015-09-15T16:07:35.977Z</time>
      </trkpt>
      <trkpt lat="44.80266" lon="1.69036">
        <ele>322.420715332</ele>
        <time>2015-09-15T16:07:45.084Z</time>
      </trkpt>
      <trkpt lat="44.80267" lon="1.69038">
        <ele>322.50390625</ele>
        <time>2015-09-15T16:07:45.977Z</time>
      </trkpt>
      <trkpt lat="44.80269" lon="1.69049">
        <ele>322.977966309</ele>
        <time>2015-09-15T16:07:56.085Z</time>
      </trkpt>
      <trkpt lat="44.80269" lon="1.69051">
        <ele>323.061279297</ele>
        <time>2015-09-15T16:07:57.038Z</time>
      </trkpt>
      <trkpt lat="44.80273" lon="1.69062">
        <ele>323.534057617</ele>
        <time>2015-09-15T16:08:03.173Z</time>
      </trkpt>
      <trkpt lat="44.80273" lon="1.69063">
        <ele>323.522918701</ele>
        <time>2015-09-15T16:08:03.983Z</time>
      </trkpt>
      <trkpt lat="44.80276" lon="1.69073">
        <ele>323.267944336</ele>
        <time>2015-09-15T16:08:08.721Z</time>
      </trkpt>
      <trkpt lat="44.80276" lon="1.69075">
        <ele>323.221740723</ele>
        <time>2015-09-15T16:08:08.923Z</time>
      </trkpt>
      <trkpt lat="44.80281" lon="1.69086">
        <ele>323.216339111</ele>
        <time>2015-09-15T16:08:16.077Z</time>
      </trkpt>
      <trkpt lat="44.80281" lon="1.69087">
        <ele>323.213775635</ele>
        <time>2015-09-15T16:08:16.972Z</time>
      </trkpt>
      <trkpt lat="44.80284" lon="1.69097">
        <ele>323.297973633</ele>
        <time>2015-09-15T16:08:25.152Z</time>
      </trkpt>
      <trkpt lat="44.80284" lon="1.691">
        <ele>323.346038818</ele>
        <time>2015-09-15T16:08:25.914Z</time>
      </trkpt>
      <trkpt lat="44.80285" lon="1.6911">
        <ele>322.91583252</ele>
        <time>2015-09-15T16:08:31.081Z</time>
      </trkpt>
      <trkpt lat="44.80285" lon="1.69112">
        <ele>322.888763428</ele>
        <time>2015-09-15T16:08:31.977Z</time>
      </trkpt>
      <trkpt lat="44.80287" lon="1.69124">
        <ele>322.818481445</ele>
        <time>2015-09-15T16:08:41.299Z</time>
      </trkpt>
      <trkpt lat="44.80288" lon="1.69127">
        <ele>322.784393311</ele>
        <time>2015-09-15T16:08:42.022Z</time>
      </trkpt>
      <trkpt lat="44.8029" lon="1.69138">
        <ele>322.431121826</ele>
        <time>2015-09-15T16:08:49.177Z</time>
      </trkpt>
      <trkpt lat="44.8029" lon="1.6914">
        <ele>322.254211426</ele>
        <time>2015-09-15T16:08:49.887Z</time>
      </trkpt>
      <trkpt lat="44.80292" lon="1.69151">
        <ele>322.22253418</ele>
        <time>2015-09-15T16:08:59.027Z</time>
      </trkpt>
      <trkpt lat="44.80293" lon="1.69152">
        <ele>322.253295898</ele>
        <time>2015-09-15T16:08:59.968Z</time>
      </trkpt>
      <trkpt lat="44.80295" lon="1.69164">
        <ele>322.625579834</ele>
        <time>2015-09-15T16:09:08.12Z</time>
      </trkpt>
      <trkpt lat="44.80295" lon="1.69166">
        <ele>322.675750732</ele>
        <time>2015-09-15T16:09:08.99Z</time>
      </trkpt>
      <trkpt lat="44.80299" lon="1.69176">
        <ele>322.753295898</ele>
        <time>2015-09-15T16:09:15.142Z</time>
      </trkpt>
      <trkpt lat="44.803" lon="1.69178">
        <ele>322.695495605</ele>
        <time>2015-09-15T16:09:15.974Z</time>
      </trkpt>
      <trkpt lat="44.80305" lon="1.69188">
        <ele>322.645507812</ele>
        <time>2015-09-15T16:09:21.1Z</time>
      </trkpt>
      <trkpt lat="44.80306" lon="1.6919">
        <ele>322.704040527</ele>
        <time>2015-09-15T16:09:21.891Z</time>
      </trkpt>
      <trkpt lat="44.80309" lon="1.692">
        <ele>322.999481201</ele>
        <time>2015-09-15T16:09:28.073Z</time>
      </trkpt>
      <trkpt lat="44.80309" lon="1.69202">
        <ele>322.991912842</ele>
        <time>2015-09-15T16:09:28.99Z</time>
      </trkpt>
      <trkpt lat="44.80313" lon="1.69212">
        <ele>322.801513672</ele>
        <time>2015-09-15T16:09:38.004Z</time>
      </trkpt>
      <trkpt lat="44.80313" lon="1.69213">
        <ele>322.826812744</ele>
        <time>2015-09-15T16:09:38.977Z</time>
      </trkpt>
      <trkpt lat="44.80318" lon="1.69224">
        <ele>322.735900879</ele>
        <time>2015-09-15T16:09:46.066Z</time>
      </trkpt>
      <trkpt lat="44.80319" lon="1.69226">
        <ele>322.656616211</ele>
        <time>2015-09-15T16:09:46.971Z</time>
      </trkpt>
      <trkpt lat="44.80322" lon="1.69236">
        <ele>322.505157471</ele>
        <time>2015-09-15T16:09:54.287Z</time>
      </trkpt>
      <trkpt lat="44.80323" lon="1.69238">
        <ele>322.65322876</ele>
        <time>2015-09-15T16:09:54.968Z</time>
      </trkpt>
      <trkpt lat="44.80324" lon="1.69249">
        <ele>322.957336426</ele>
        <time>2015-09-15T16:10:00.177Z</time>
      </trkpt>
      <trkpt lat="44.80325" lon="1.6925">
        <ele>322.963195801</ele>
        <time>2015-09-15T16:10:00.91Z</time>
      </trkpt>
      <trkpt lat="44.80328" lon="1.69261">
        <ele>323.304718018</ele>
        <time>2015-09-15T16:10:08.07Z</time>
      </trkpt>
      <trkpt lat="44.80329" lon="1.69262">
        <ele>323.374053955</ele>
        <time>2015-09-15T16:10:08.994Z</time>
      </trkpt>
      <trkpt lat="44.80333" lon="1.69273">
        <ele>324.165985107</ele>
        <time>2015-09-15T16:10:17.038Z</time>
      </trkpt>
      <trkpt lat="44.80333" lon="1.69274">
        <ele>324.262817383</ele>
        <time>2015-09-15T16:10:17.957Z</time>
      </trkpt>
      <trkpt lat="44.80333" lon="1.69287">
        <ele>324.617462158</ele>
        <time>2015-09-15T16:10:27.085Z</time>
      </trkpt>
      <trkpt lat="44.80333" lon="1.69288">
        <ele>324.671966553</ele>
        <time>2015-09-15T16:10:27.974Z</time>
      </trkpt>
      <trkpt lat="44.80337" lon="1.69299">
        <ele>324.50112915</ele>
        <time>2015-09-15T16:10:38.096Z</time>
      </trkpt>
      <trkpt lat="44.80337" lon="1.693">
        <ele>324.444641113</ele>
        <time>2015-09-15T16:10:38.966Z</time>
      </trkpt>
      <trkpt lat="44.80339" lon="1.69311">
        <ele>324.796356201</ele>
        <time>2015-09-15T16:10:45.078Z</time>
      </trkpt>
      <trkpt lat="44.8034" lon="1.69313">
        <ele>324.832519531</ele>
        <time>2015-09-15T16:10:45.99Z</time>
      </trkpt>
      <trkpt lat="44.80344" lon="1.69323">
        <ele>324.836975098</ele>
        <time>2015-09-15T16:10:52.079Z</time>
      </trkpt>
      <trkpt lat="44.80344" lon="1.69325">
        <ele>324.83203125</ele>
        <time>2015-09-15T16:10:52.951Z</time>
      </trkpt>
      <trkpt lat="44.80346" lon="1.69337">
        <ele>324.966247559</ele>
        <time>2015-09-15T16:11:00.982Z</time>
      </trkpt>
      <trkpt lat="44.80347" lon="1.69339">
        <ele>325.003234863</ele>
        <time>2015-09-15T16:11:01.97Z</time>
      </trkpt>
      <trkpt lat="44.80348" lon="1.6935">
        <ele>324.877960205</ele>
        <time>2015-09-15T16:11:09.113Z</time>
      </trkpt>
      <trkpt lat="44.80349" lon="1.69352">
        <ele>324.846252441</ele>
        <time>2015-09-15T16:11:09.963Z</time>
      </trkpt>
      <trkpt lat="44.80352" lon="1.69363">
        <ele>324.908905029</ele>
        <time>2015-09-15T16:11:16.954Z</time>
      </trkpt>
      <trkpt lat="44.80351" lon="1.69365">
        <ele>324.877960205</ele>
        <time>2015-09-15T16:11:17.95Z</time>
      </trkpt>
      <trkpt lat="44.80353" lon="1.69376">
        <ele>324.567230225</ele>
        <time>2015-09-15T16:11:26.057Z</time>
      </trkpt>
      <trkpt lat="44.80354" lon="1.69378">
        <ele>324.602325439</ele>
        <time>2015-09-15T16:11:26.972Z</time>
      </trkpt>
      <trkpt lat="44.80357" lon="1.69389">
        <ele>325.156829834</ele>
        <time>2015-09-15T16:11:36.014Z</time>
      </trkpt>
      <trkpt lat="44.80357" lon="1.69391">
        <ele>325.147247314</ele>
        <time>2015-09-15T16:11:36.952Z</time>
      </trkpt>
      <trkpt lat="44.80359" lon="1.69402">
        <ele>325.423553467</ele>
        <time>2015-09-15T16:11:44.019Z</time>
      </trkpt>
      <trkpt lat="44.80359" lon="1.69403">
        <ele>325.469970703</ele>
        <time>2015-09-15T16:11:44.956Z</time>
      </trkpt>
      <trkpt lat="44.8036" lon="1.69415">
        <ele>325.492095947</ele>
        <time>2015-09-15T16:11:51.944Z</time>
      </trkpt>
      <trkpt lat="44.8036" lon="1.69416">
        <ele>325.432800293</ele>
        <time>2015-09-15T16:11:52.905Z</time>
      </trkpt>
      <trkpt lat="44.80362" lon="1.69428">
        <ele>325.431213379</ele>
        <time>2015-09-15T16:11:58.021Z</time>
      </trkpt>
      <trkpt lat="44.80362" lon="1.69429">
        <ele>325.518768311</ele>
        <time>2015-09-15T16:11:58.965Z</time>
      </trkpt>
      <trkpt lat="44.80358" lon="1.6944">
        <ele>326.096374512</ele>
        <time>2015-09-15T16:12:05.103Z</time>
      </trkpt>
      <trkpt lat="44.80357" lon="1.69442">
        <ele>326.184112549</ele>
        <time>2015-09-15T16:12:05.977Z</time>
      </trkpt>
      <trkpt lat="44.80355" lon="1.69454">
        <ele>326.502441406</ele>
        <time>2015-09-15T16:12:14.081Z</time>
      </trkpt>
      <trkpt lat="44.80355" lon="1.69456">
        <ele>326.552246094</ele>
        <time>2015-09-15T16:12:14.976Z</time>
      </trkpt>
      <trkpt lat="44.80353" lon="1.69467">
        <ele>327.284423828</ele>
        <time>2015-09-15T16:12:25.115Z</time>
      </trkpt>
      <trkpt lat="44.80352" lon="1.69468">
        <ele>327.29385376</ele>
        <time>2015-09-15T16:12:25.982Z</time>
      </trkpt>
      <trkpt lat="44.80352" lon="1.6948">
        <ele>327.00894165</ele>
        <time>2015-09-15T16:12:38.082Z</time>
      </trkpt>
      <trkpt lat="44.80352" lon="1.69481">
        <ele>326.996276855</ele>
        <time>2015-09-15T16:12:38.926Z</time>
      </trkpt>
      <trkpt lat="44.80356" lon="1.69491">
        <ele>325.128662109</ele>
        <time>2015-09-15T16:14:54.098Z</time>
      </trkpt>
      <trkpt lat="44.80356" lon="1.69493">
        <ele>324.983856201</ele>
        <time>2015-09-15T16:14:54.973Z</time>
      </trkpt>
      <trkpt lat="44.80351" lon="1.69482">
        <ele>325.820159912</ele>
        <time>2015-09-15T16:15:18.051Z</time>
      </trkpt>
      <trkpt lat="44.80351" lon="1.69481">
        <ele>325.827331543</ele>
        <time>2015-09-15T16:15:18.965Z</time>
      </trkpt>
      <trkpt lat="44.80355" lon="1.69491">
        <ele>325.49407959</ele>
        <time>2015-09-15T16:19:05.194Z</time>
      </trkpt>
      <trkpt lat="44.80356" lon="1.69493">
        <ele>325.519042969</ele>
        <time>2015-09-15T16:19:05.984Z</time>
      </trkpt>
      <trkpt lat="44.8036" lon="1.69502">
        <ele>325.839874268</ele>
        <time>2015-09-15T16:19:12.074Z</time>
      </trkpt>
      <trkpt lat="44.80361" lon="1.69504">
        <ele>325.851379395</ele>
        <time>2015-09-15T16:19:13.003Z</time>
      </trkpt>
      <trkpt lat="44.80363" lon="1.69515">
        <ele>326.288421631</ele>
        <time>2015-09-15T16:19:23.083Z</time>
      </trkpt>
      <trkpt lat="44.80364" lon="1.69517">
        <ele>326.44329834</ele>
        <time>2015-09-15T16:19:24.047Z</time>
      </trkpt>
      <trkpt lat="44.80368" lon="1.69528">
        <ele>327.225494385</ele>
        <time>2015-09-15T16:19:31.096Z</time>
      </trkpt>
      <trkpt lat="44.80369" lon="1.69528">
        <ele>327.281524658</ele>
        <time>2015-09-15T16:19:31.969Z</time>
      </trkpt>
      <trkpt lat="44.80373" lon="1.69538">
        <ele>328.224945068</ele>
        <time>2015-09-15T16:19:46.048Z</time>
      </trkpt>
      <trkpt lat="44.80373" lon="1.69541">
        <ele>328.304046631</ele>
        <time>2015-09-15T16:19:46.92Z</time>
      </trkpt>
      <trkpt lat="44.80374" lon="1.69552">
        <ele>328.302062988</ele>
        <time>2015-09-15T16:19:54.018Z</time>
      </trkpt>
      <trkpt lat="44.80374" lon="1.69554">
        <ele>328.313659668</ele>
        <time>2015-09-15T16:19:54.969Z</time>
      </trkpt>
      <trkpt lat="44.80378" lon="1.69564">
        <ele>328.621002197</ele>
        <time>2015-09-15T16:20:00.956Z</time>
      </trkpt>
      <trkpt lat="44.80379" lon="1.69567">
        <ele>328.640380859</ele>
        <time>2015-09-15T16:20:01.965Z</time>
      </trkpt>
      <trkpt lat="44.80381" lon="1.69578">
        <ele>328.275665283</ele>
        <time>2015-09-15T16:20:09.127Z</time>
      </trkpt>
      <trkpt lat="44.80381" lon="1.69579">
        <ele>328.263977051</ele>
        <time>2015-09-15T16:20:09.93Z</time>
      </trkpt>
      <trkpt lat="44.80374" lon="1.69586">
        <ele>328.311889648</ele>
        <time>2015-09-15T16:20:20.094Z</time>
      </trkpt>
      <trkpt lat="44.80373" lon="1.69588">
        <ele>328.30065918</ele>
        <time>2015-09-15T16:20:21.003Z</time>
      </trkpt>
      <trkpt lat="44.80366" lon="1.69594">
        <ele>328.878967285</ele>
        <time>2015-09-15T16:20:30.343Z</time>
      </trkpt>
      <trkpt lat="44.80364" lon="1.69596">
        <ele>328.98425293</ele>
        <time>2015-09-15T16:20:30.921Z</time>
      </trkpt>
      <trkpt lat="44.80358" lon="1.69604">
        <ele>330.657287598</ele>
        <time>2015-09-15T16:20:57.078Z</time>
      </trkpt>
      <trkpt lat="44.80357" lon="1.69606">
        <ele>330.74307251</ele>
        <time>2015-09-15T16:20:57.973Z</time>
      </trkpt>
      <trkpt lat="44.8035" lon="1.69612">
        <ele>330.97479248</ele>
        <time>2015-09-15T16:21:06.899Z</time>
      </trkpt>
      <trkpt lat="44.80349" lon="1.69612">
        <ele>331.118133545</ele>
        <time>2015-09-15T16:21:07.977Z</time>
      </trkpt>
      <trkpt lat="44.80341" lon="1.69616">
        <ele>332.828979492</ele>
        <time>2015-09-15T16:21:33.013Z</time>
      </trkpt>
      <trkpt lat="44.8034" lon="1.69616">
        <ele>333.015808105</ele>
        <time>2015-09-15T16:21:33.917Z</time>
      </trkpt>
      <trkpt lat="44.80348" lon="1.69618">
        <ele>333.97869873</ele>
        <time>2015-09-15T16:22:02.104Z</time>
      </trkpt>
      <trkpt lat="44.8035" lon="1.69617">
        <ele>333.960296631</ele>
        <time>2015-09-15T16:22:03.033Z</time>
      </trkpt>
      <trkpt lat="44.80357" lon="1.69614">
        <ele>333.805267334</ele>
        <time>2015-09-15T16:22:09.107Z</time>
      </trkpt>
      <trkpt lat="44.80359" lon="1.69613">
        <ele>333.738189697</ele>
        <time>2015-09-15T16:22:09.972Z</time>
      </trkpt>
      <trkpt lat="44.80362" lon="1.69603">
        <ele>333.348754883</ele>
        <time>2015-09-15T16:22:24.107Z</time>
      </trkpt>
      <trkpt lat="44.80361" lon="1.696">
        <ele>333.24420166</ele>
        <time>2015-09-15T16:22:25.037Z</time>
      </trkpt>
      <trkpt lat="44.80357" lon="1.69589">
        <ele>332.175872803</ele>
        <time>2015-09-15T16:22:30.999Z</time>
      </trkpt>
      <trkpt lat="44.80357" lon="1.69588">
        <ele>332.035186768</ele>
        <time>2015-09-15T16:22:31.975Z</time>
      </trkpt>
      <trkpt lat="44.80363" lon="1.69596">
        <ele>334.049377441</ele>
        <time>2015-09-15T16:24:04.079Z</time>
      </trkpt>
      <trkpt lat="44.80364" lon="1.69596">
        <ele>334.090820312</ele>
        <time>2015-09-15T16:24:04.958Z</time>
      </trkpt>
      <trkpt lat="44.8037" lon="1.6959">
        <ele>333.856384277</ele>
        <time>2015-09-15T16:24:12.081Z</time>
      </trkpt>
      <trkpt lat="44.80372" lon="1.69588">
        <ele>333.788085938</ele>
        <time>2015-09-15T16:24:12.966Z</time>
      </trkpt>
      <trkpt lat="44.80379" lon="1.69585">
        <ele>333.190185547</ele>
        <time>2015-09-15T16:24:24.63Z</time>
      </trkpt>
      <trkpt lat="44.80382" lon="1.69584">
        <ele>333.10559082</ele>
        <time>2015-09-15T16:24:25Z</time>
      </trkpt>
      <trkpt lat="44.80385" lon="1.69573">
        <ele>331.147247314</ele>
        <time>2015-09-15T16:24:35.117Z</time>
      </trkpt>
      <trkpt lat="44.80385" lon="1.69571">
        <ele>330.962524414</ele>
        <time>2015-09-15T16:24:35.973Z</time>
      </trkpt>
      <trkpt lat="44.80381" lon="1.6956">
        <ele>330.531829834</ele>
        <time>2015-09-15T16:24:45.983Z</time>
      </trkpt>
      <trkpt lat="44.80381" lon="1.69559">
        <ele>330.553527832</ele>
        <time>2015-09-15T16:24:46.971Z</time>
      </trkpt>
      <trkpt lat="44.80378" lon="1.69547">
        <ele>330.021911621</ele>
        <time>2015-09-15T16:24:54.736Z</time>
      </trkpt>
      <trkpt lat="44.80378" lon="1.69545">
        <ele>329.890197754</ele>
        <time>2015-09-15T16:24:54.925Z</time>
      </trkpt>
      <trkpt lat="44.80374" lon="1.69536">
        <ele>329.789276123</ele>
        <time>2015-09-15T16:25:00.132Z</time>
      </trkpt>
      <trkpt lat="44.80374" lon="1.69534">
        <ele>329.738922119</ele>
        <time>2015-09-15T16:25:01.009Z</time>
      </trkpt>
      <trkpt lat="44.8037" lon="1.69523">
        <ele>329.813690186</ele>
        <time>2015-09-15T16:25:07.092Z</time>
      </trkpt>
      <trkpt lat="44.80369" lon="1.69521">
        <ele>329.849395752</ele>
        <time>2015-09-15T16:25:07.976Z</time>
      </trkpt>
      <trkpt lat="44.80365" lon="1.69511">
        <ele>330.090911865</ele>
        <time>2015-09-15T16:25:16.073Z</time>
      </trkpt>
      <trkpt lat="44.80365" lon="1.69508">
        <ele>330.083770752</ele>
        <time>2015-09-15T16:25:16.971Z</time>
      </trkpt>
      <trkpt lat="44.80362" lon="1.69497">
        <ele>330.150054932</ele>
        <time>2015-09-15T16:25:25.1Z</time>
      </trkpt>
      <trkpt lat="44.80362" lon="1.69496">
        <ele>330.120727539</ele>
        <time>2015-09-15T16:25:25.986Z</time>
      </trkpt>
      <trkpt lat="44.80359" lon="1.69484">
        <ele>329.72833252</ele>
        <time>2015-09-15T16:25:32.08Z</time>
      </trkpt>
      <trkpt lat="44.80359" lon="1.69483">
        <ele>329.699005127</ele>
        <time>2015-09-15T16:25:32.983Z</time>
      </trkpt>
      <trkpt lat="44.80367" lon="1.69477">
        <ele>328.499847412</ele>
        <time>2015-09-15T16:25:49.996Z</time>
      </trkpt>
      <trkpt lat="44.80368" lon="1.69477">
        <ele>328.499145508</ele>
        <time>2015-09-15T16:25:51.01Z</time>
      </trkpt>
      <trkpt lat="44.80376" lon="1.69474">
        <ele>328.432678223</ele>
        <time>2015-09-15T16:25:59.081Z</time>
      </trkpt>
      <trkpt lat="44.80377" lon="1.69473">
        <ele>328.379180908</ele>
        <time>2015-09-15T16:25:59.981Z</time>
      </trkpt>
      <trkpt lat="44.80385" lon="1.69473">
        <ele>328.036773682</ele>
        <time>2015-09-15T16:26:05.91Z</time>
      </trkpt>
      <trkpt lat="44.80387" lon="1.69472">
        <ele>327.969268799</ele>
        <time>2015-09-15T16:26:06.985Z</time>
      </trkpt>
      <trkpt lat="44.80396" lon="1.6947">
        <ele>327.20413208</ele>
        <time>2015-09-15T16:26:14.343Z</time>
      </trkpt>
      <trkpt lat="44.80397" lon="1.6947">
        <ele>327.198760986</ele>
        <time>2015-09-15T16:26:14.886Z</time>
      </trkpt>
      <trkpt lat="44.80405" lon="1.69467">
        <ele>326.700500488</ele>
        <time>2015-09-15T16:26:22.966Z</time>
      </trkpt>
      <trkpt lat="44.80406" lon="1.69467">
        <ele>326.704376221</ele>
        <time>2015-09-15T16:26:23.94Z</time>
      </trkpt>
      <trkpt lat="44.80414" lon="1.69462">
        <ele>326.835845947</ele>
        <time>2015-09-15T16:26:32.021Z</time>
      </trkpt>
      <trkpt lat="44.80415" lon="1.69462">
        <ele>326.856842041</ele>
        <time>2015-09-15T16:26:32.953Z</time>
      </trkpt>
      <trkpt lat="44.80423" lon="1.6946">
        <ele>327.281402588</ele>
        <time>2015-09-15T16:26:40.064Z</time>
      </trkpt>
      <trkpt lat="44.80424" lon="1.6946">
        <ele>327.300201416</ele>
        <time>2015-09-15T16:26:40.97Z</time>
      </trkpt>
      <trkpt lat="44.80432" lon="1.69458">
        <ele>327.142333984</ele>
        <time>2015-09-15T16:26:49.991Z</time>
      </trkpt>
      <trkpt lat="44.80433" lon="1.69458">
        <ele>327.162384033</ele>
        <time>2015-09-15T16:26:50.953Z</time>
      </trkpt>
      <trkpt lat="44.80441" lon="1.6946">
        <ele>327.081298828</ele>
        <time>2015-09-15T16:27:03.215Z</time>
      </trkpt>
      <trkpt lat="44.80442" lon="1.69459">
        <ele>327.048309326</ele>
        <time>2015-09-15T16:27:03.964Z</time>
      </trkpt>
      <trkpt lat="44.8045" lon="1.69459">
        <ele>326.935272217</ele>
        <time>2015-09-15T16:27:10.077Z</time>
      </trkpt>
      <trkpt lat="44.80451" lon="1.69459">
        <ele>326.860809326</ele>
        <time>2015-09-15T16:27:11.034Z</time>
      </trkpt>
      <trkpt lat="44.80459" lon="1.69462">
        <ele>326.538604736</ele>
        <time>2015-09-15T16:27:19.078Z</time>
      </trkpt>
      <trkpt lat="44.8046" lon="1.69462">
        <ele>326.498840332</ele>
        <time>2015-09-15T16:27:19.961Z</time>
      </trkpt>
      <trkpt lat="44.80467" lon="1.69465">
        <ele>326.67565918</ele>
        <time>2015-09-15T16:27:32.225Z</time>
      </trkpt>
      <trkpt lat="44.80469" lon="1.69465">
        <ele>326.724487305</ele>
        <time>2015-09-15T16:27:32.94Z</time>
      </trkpt>
      <trkpt lat="44.80478" lon="1.69464">
        <ele>326.962677002</ele>
        <time>2015-09-15T16:27:40.997Z</time>
      </trkpt>
      <trkpt lat="44.80479" lon="1.69464">
        <ele>326.99307251</ele>
        <time>2015-09-15T16:27:41.973Z</time>
      </trkpt>
      <trkpt lat="44.80487" lon="1.69468">
        <ele>327.439880371</ele>
        <time>2015-09-15T16:27:51.078Z</time>
      </trkpt>
      <trkpt lat="44.80488" lon="1.69468">
        <ele>327.489837646</ele>
        <time>2015-09-15T16:27:51.997Z</time>
      </trkpt>
      <trkpt lat="44.80493" lon="1.69475">
        <ele>328.161071777</ele>
        <time>2015-09-15T16:28:02.047Z</time>
      </trkpt>
      <trkpt lat="44.80495" lon="1.69477">
        <ele>328.233581543</ele>
        <time>2015-09-15T16:28:03.049Z</time>
      </trkpt>
      <trkpt lat="44.80501" lon="1.69484">
        <ele>328.671936035</ele>
        <time>2015-09-15T16:28:11.095Z</time>
      </trkpt>
      <trkpt lat="44.80502" lon="1.69486">
        <ele>328.693084717</ele>
        <time>2015-09-15T16:28:11.982Z</time>
      </trkpt>
      <trkpt lat="44.80504" lon="1.69492">
        <ele>328.999450684</ele>
        <time>2015-09-15T16:28:22.762Z</time>
      </trkpt>
    </trkseg>
  </trk>
</gpx>